Time,TemperatureF,DewpointF,PressureIn,WindDirection,WindDirectionDegrees,WindSpeedMPH,WindSpeedGustMPH,Humidity,HourlyPrecipIn,Conditions,Clouds,dailyrainin,SoftwareType,DateUTC
2013-04-27 00:01:00,52.0,43.8,30.21,East,90,0.0,0.0,73,0.00,,,0.00,WUHU21636XXSP,2013-04-27 07:01:00,
2013-04-27 00:02:00,52.0,43.8,30.21,East,90,0.0,0.0,73,0.00,,,0.00,WUHU21636XXSP,2013-04-27 07:02:00,
2013-04-27 00:04:00,52.0,43.8,30.21,East,90,0.0,0.0,73,0.00,,,0.00,WUHU21636XXSP,2013-04-27 07:04:00,
2013-04-27 00:06:00,52.0,43.4,30.22,East,90,0.0,0.0,72,0.00,,,0.00,WUHU21636XXSP,2013-04-27 07:06:00,
2013-04-27 00:07:00,52.0,43.4,30.22,East,90,0.0,0.0,72,0.00,,,0.00,WUHU21636XXSP,2013-04-27 07:07:00,
2013-04-27 00:09:00,52.0,43.4,30.22,East,90,0.0,0.0,72,0.00,,,0.00,WUHU21636XXSP,2013-04-27 07:09:00,
2013-04-27 00:11:00,52.0,43.4,30.22,East,90,0.0,0.0,72,0.00,,,0.00,WUHU21636XXSP,2013-04-27 07:11:00,
2013-04-27 00:12:00,52.0,43.4,30.22,East,90,0.0,0.0,72,0.00,,,0.00,WUHU21636XXSP,2013-04-27 07:12:00,
2013-04-27 00:14:00,52.0,43.8,30.22,East,90,0.0,0.0,73,0.00,,,0.00,WUHU21636XXSP,2013-04-27 07:14:00,
2013-04-27 00:15:00,52.0,43.8,30.22,East,90,0.0,0.0,73,0.00,,,0.00,WUHU21636XXSP,2013-04-27 07:15:00,
2013-04-27 00:16:00,52.0,43.8,30.22,East,90,0.0,0.0,73,0.00,,,0.00,WUHU21636XXSP,2013-04-27 07:16:00,
2013-04-27 00:17:00,52.0,43.8,30.22,East,90,0.0,0.0,73,0.00,,,0.00,WUHU21636XXSP,2013-04-27 07:17:00,
2013-04-27 00:20:00,52.0,43.8,30.22,East,90,0.0,0.0,73,0.00,,,0.00,WUHU21636XXSP,2013-04-27 07:20:00,
2013-04-27 00:21:00,52.0,43.8,30.22,East,90,0.0,0.0,73,0.00,,,0.00,WUHU21636XXSP,2013-04-27 07:21:00,
2013-04-27 00:22:00,51.8,43.6,30.22,East,90,0.0,0.0,73,0.00,,,0.00,WUHU21636XXSP,2013-04-27 07:22:00,
2013-04-27 00:23:00,51.8,43.6,30.22,East,90,0.0,0.0,73,0.00,,,0.00,WUHU21636XXSP,2013-04-27 07:23:00,
2013-04-27 00:25:00,52.0,43.8,30.22,East,90,0.0,0.0,73,0.00,,,0.00,WUHU21636XXSP,2013-04-27 07:25:00,
2013-04-27 00:27:00,51.8,43.9,30.21,East,90,0.0,0.0,74,0.00,,,0.00,WUHU21636XXSP,2013-04-27 07:27:00,
2013-04-27 00:28:00,51.6,43.7,30.22,East,90,0.0,0.0,74,0.00,,,0.00,WUHU21636XXSP,2013-04-27 07:28:00,
2013-04-27 00:30:00,51.6,43.7,30.21,East,90,0.0,0.0,74,0.00,,,0.00,WUHU21636XXSP,2013-04-27 07:30:00,
2013-04-27 00:31:00,51.6,43.7,30.21,East,90,0.0,0.0,74,0.00,,,0.00,WUHU21636XXSP,2013-04-27 07:31:00,
2013-04-27 00:32:00,51.6,43.7,30.21,East,90,0.0,0.0,74,0.00,,,0.00,WUHU21636XXSP,2013-04-27 07:32:00,
2013-04-27 00:33:00,51.6,43.7,30.21,East,90,0.0,0.0,74,0.00,,,0.00,WUHU21636XXSP,2013-04-27 07:33:00,
2013-04-27 00:35:00,51.6,43.7,30.21,East,90,0.0,0.0,74,0.00,,,0.00,WUHU21636XXSP,2013-04-27 07:35:00,
2013-04-27 00:36:00,51.6,43.7,30.21,East,90,0.0,0.0,74,0.00,,,0.00,WUHU21636XXSP,2013-04-27 07:36:00,
2013-04-27 00:37:00,51.6,43.7,30.21,East,90,0.0,0.0,74,0.00,,,0.00,WUHU21636XXSP,2013-04-27 07:37:00,
2013-04-27 00:38:00,51.6,43.7,30.21,East,90,0.0,0.0,74,0.00,,,0.00,WUHU21636XXSP,2013-04-27 07:38:00,
2013-04-27 00:39:00,51.6,43.7,30.21,East,90,0.0,0.0,74,0.00,,,0.00,WUHU21636XXSP,2013-04-27 07:39:00,
2013-04-27 00:40:00,51.6,43.7,30.21,East,90,0.0,0.0,74,0.00,,,0.00,WUHU21636XXSP,2013-04-27 07:40:00,
2013-04-27 00:41:00,51.6,43.7,30.21,East,90,0.0,0.0,74,0.00,,,0.00,WUHU21636XXSP,2013-04-27 07:41:00,
2013-04-27 00:42:00,51.6,43.7,30.21,East,90,0.0,0.0,74,0.00,,,0.00,WUHU21636XXSP,2013-04-27 07:42:00,
2013-04-27 00:43:00,51.4,43.5,30.21,East,90,0.0,0.0,74,0.00,,,0.00,WUHU21636XXSP,2013-04-27 07:43:00,
2013-04-27 00:44:00,51.4,43.5,30.21,East,90,0.0,0.0,74,0.00,,,0.00,WUHU21636XXSP,2013-04-27 07:44:00,
2013-04-27 00:45:00,51.6,43.7,30.21,East,90,0.0,0.0,74,0.00,,,0.00,WUHU21636XXSP,2013-04-27 07:45:00,
2013-04-27 00:46:00,51.6,43.7,30.21,East,90,0.0,0.0,74,0.00,,,0.00,WUHU21636XXSP,2013-04-27 07:46:00,
2013-04-27 00:47:00,51.4,43.5,30.21,East,90,0.0,0.0,74,0.00,,,0.00,WUHU21636XXSP,2013-04-27 07:47:00,
2013-04-27 00:48:00,51.4,43.5,30.21,East,90,0.0,0.0,74,0.00,,,0.00,WUHU21636XXSP,2013-04-27 07:48:00,
2013-04-27 00:49:00,51.4,43.5,30.20,East,90,0.0,0.0,74,0.00,,,0.00,WUHU21636XXSP,2013-04-27 07:49:00,
2013-04-27 00:50:00,51.6,44.1,30.21,East,90,0.0,0.0,75,0.00,,,0.00,WUHU21636XXSP,2013-04-27 07:50:00,
2013-04-27 00:51:00,51.6,44.1,30.21,East,90,0.0,0.0,75,0.00,,,0.00,WUHU21636XXSP,2013-04-27 07:51:00,
2013-04-27 00:52:00,51.4,43.9,30.21,East,90,0.0,0.0,75,0.00,,,0.00,WUHU21636XXSP,2013-04-27 07:52:00,
2013-04-27 00:53:00,51.4,43.9,30.21,East,90,0.0,0.0,75,0.00,,,0.00,WUHU21636XXSP,2013-04-27 07:53:00,
2013-04-27 00:54:00,51.4,43.9,30.21,East,90,0.0,0.0,75,0.00,,,0.00,WUHU21636XXSP,2013-04-27 07:54:00,
2013-04-27 00:55:00,51.4,43.9,30.21,East,90,0.0,0.0,75,0.00,,,0.00,WUHU21636XXSP,2013-04-27 07:55:00,
2013-04-27 00:56:00,51.4,43.9,30.21,East,90,0.0,0.0,75,0.00,,,0.00,WUHU21636XXSP,2013-04-27 07:56:00,
2013-04-27 00:57:00,51.4,43.9,30.21,East,90,0.0,0.0,75,0.00,,,0.00,WUHU21636XXSP,2013-04-27 07:57:00,
2013-04-27 00:58:00,51.4,43.9,30.21,East,90,0.0,0.0,75,0.00,,,0.00,WUHU21636XXSP,2013-04-27 07:58:00,
2013-04-27 00:59:00,51.4,43.9,30.21,East,90,0.0,0.0,75,0.00,,,0.00,WUHU21636XXSP,2013-04-27 07:59:00,
2013-04-27 01:01:00,51.4,43.9,30.21,East,90,0.0,0.0,75,0.00,,,0.00,WUHU21636XXSP,2013-04-27 08:01:00,
2013-04-27 01:02:00,51.4,43.9,30.21,East,90,0.0,0.0,75,0.00,,,0.00,WUHU21636XXSP,2013-04-27 08:02:00,
2013-04-27 01:03:00,51.4,43.9,30.21,East,90,0.0,0.0,75,0.00,,,0.00,WUHU21636XXSP,2013-04-27 08:03:00,
2013-04-27 01:04:00,51.4,43.9,30.21,East,90,0.0,0.0,75,0.00,,,0.00,WUHU21636XXSP,2013-04-27 08:04:00,
2013-04-27 01:06:00,51.4,43.9,30.21,East,90,0.0,0.0,75,0.00,,,0.00,WUHU21636XXSP,2013-04-27 08:06:00,
2013-04-27 01:08:00,51.4,43.9,30.21,East,90,0.0,0.0,75,0.00,,,0.00,WUHU21636XXSP,2013-04-27 08:08:00,
2013-04-27 01:10:00,51.4,43.9,30.21,East,90,0.0,0.0,75,0.00,,,0.00,WUHU21636XXSP,2013-04-27 08:10:00,
2013-04-27 01:11:00,51.4,43.9,30.21,East,90,0.0,0.0,75,0.00,,,0.00,WUHU21636XXSP,2013-04-27 08:11:00,
2013-04-27 01:13:00,51.4,43.9,30.21,East,90,0.0,0.0,75,0.00,,,0.00,WUHU21636XXSP,2013-04-27 08:13:00,
2013-04-27 01:15:00,51.4,43.9,30.21,East,90,0.0,0.0,75,0.00,,,0.00,WUHU21636XXSP,2013-04-27 08:15:00,
2013-04-27 01:16:00,51.4,43.9,30.21,East,90,0.0,0.0,75,0.00,,,0.00,WUHU21636XXSP,2013-04-27 08:16:00,
2013-04-27 01:18:00,51.4,43.9,30.21,East,90,0.0,0.0,75,0.00,,,0.00,WUHU21636XXSP,2013-04-27 08:18:00,
2013-04-27 01:20:00,51.4,44.2,30.21,East,90,0.0,0.0,76,0.00,,,0.00,WUHU21636XXSP,2013-04-27 08:20:00,
2013-04-27 01:21:00,51.4,44.2,30.21,East,90,0.0,0.0,76,0.00,,,0.00,WUHU21636XXSP,2013-04-27 08:21:00,
2013-04-27 01:22:00,51.4,44.2,30.21,East,90,0.0,0.0,76,0.00,,,0.00,WUHU21636XXSP,2013-04-27 08:22:00,
2013-04-27 01:23:00,51.4,44.2,30.21,East,90,0.0,0.0,76,0.00,,,0.00,WUHU21636XXSP,2013-04-27 08:23:00,
2013-04-27 01:26:00,51.3,44.1,30.21,East,90,0.0,0.0,76,0.00,,,0.00,WUHU21636XXSP,2013-04-27 08:26:00,
2013-04-27 01:27:00,51.3,44.1,30.21,East,90,0.0,0.0,76,0.00,,,0.00,WUHU21636XXSP,2013-04-27 08:27:00,
2013-04-27 01:28:00,51.3,44.1,30.21,East,90,0.0,0.0,76,0.00,,,0.00,WUHU21636XXSP,2013-04-27 08:28:00,
2013-04-27 01:29:00,51.4,44.2,30.21,East,90,0.0,0.0,76,0.00,,,0.00,WUHU21636XXSP,2013-04-27 08:29:00,
2013-04-27 01:31:00,51.3,44.1,30.21,East,90,0.0,0.0,76,0.00,,,0.00,WUHU21636XXSP,2013-04-27 08:31:00,
2013-04-27 01:32:00,51.3,44.1,30.21,East,90,0.0,0.0,76,0.00,,,0.00,WUHU21636XXSP,2013-04-27 08:32:00,
2013-04-27 01:33:00,51.3,44.1,30.21,East,90,0.0,0.0,76,0.00,,,0.00,WUHU21636XXSP,2013-04-27 08:33:00,
2013-04-27 01:34:00,51.3,44.1,30.21,East,90,0.0,0.0,76,0.00,,,0.00,WUHU21636XXSP,2013-04-27 08:34:00,
2013-04-27 01:36:00,51.3,44.1,30.21,East,90,0.0,0.0,76,0.00,,,0.00,WUHU21636XXSP,2013-04-27 08:36:00,
2013-04-27 01:37:00,51.1,43.9,30.21,East,90,0.0,0.0,76,0.00,,,0.00,WUHU21636XXSP,2013-04-27 08:37:00,
2013-04-27 01:38:00,51.1,43.9,30.21,East,90,0.0,0.0,76,0.00,,,0.00,WUHU21636XXSP,2013-04-27 08:38:00,
2013-04-27 01:39:00,51.1,44.3,30.21,East,90,0.0,0.0,77,0.00,,,0.00,WUHU21636XXSP,2013-04-27 08:39:00,
2013-04-27 01:42:00,51.1,44.3,30.21,East,90,0.0,0.0,77,0.00,,,0.00,WUHU21636XXSP,2013-04-27 08:42:00,
2013-04-27 01:43:00,51.1,44.3,30.21,East,90,0.0,0.0,77,0.00,,,0.00,WUHU21636XXSP,2013-04-27 08:43:00,
2013-04-27 01:44:00,51.1,44.3,30.21,East,90,0.0,0.0,77,0.00,,,0.00,WUHU21636XXSP,2013-04-27 08:44:00,
2013-04-27 01:47:00,51.1,44.3,30.21,East,90,0.0,0.0,77,0.00,,,0.00,WUHU21636XXSP,2013-04-27 08:47:00,
2013-04-27 01:48:00,51.1,44.3,30.21,East,90,0.0,0.0,77,0.00,,,0.00,WUHU21636XXSP,2013-04-27 08:48:00,
2013-04-27 01:49:00,51.1,44.3,30.21,East,90,0.0,0.0,77,0.00,,,0.00,WUHU21636XXSP,2013-04-27 08:49:00,
2013-04-27 01:52:00,51.1,44.6,30.20,East,90,0.0,0.0,78,0.00,,,0.00,WUHU21636XXSP,2013-04-27 08:52:00,
2013-04-27 01:53:00,51.1,44.6,30.20,East,90,0.0,0.0,78,0.00,,,0.00,WUHU21636XXSP,2013-04-27 08:53:00,
2013-04-27 01:54:00,51.1,44.6,30.20,East,90,0.0,0.0,78,0.00,,,0.00,WUHU21636XXSP,2013-04-27 08:54:00,
2013-04-27 01:57:00,50.9,44.1,30.21,East,90,0.0,0.0,77,0.00,,,0.00,WUHU21636XXSP,2013-04-27 08:57:00,
2013-04-27 01:58:00,50.9,44.1,30.21,East,90,0.0,0.0,77,0.00,,,0.00,WUHU21636XXSP,2013-04-27 08:58:00,
2013-04-27 02:00:00,50.9,44.4,30.20,East,90,0.0,0.0,78,0.00,,,0.00,WUHU21636XXSP,2013-04-27 09:00:00,
2013-04-27 02:02:00,50.9,44.4,30.20,East,90,0.0,0.0,78,0.00,,,0.00,WUHU21636XXSP,2013-04-27 09:02:00,
2013-04-27 02:03:00,50.9,44.4,30.20,East,90,0.0,0.0,78,0.00,,,0.00,WUHU21636XXSP,2013-04-27 09:03:00,
2013-04-27 02:05:00,50.7,44.2,30.20,East,90,0.0,0.0,78,0.00,,,0.00,WUHU21636XXSP,2013-04-27 09:05:00,
2013-04-27 02:07:00,50.7,44.2,30.20,East,90,0.0,0.0,78,0.00,,,0.00,WUHU21636XXSP,2013-04-27 09:07:00,
2013-04-27 02:08:00,50.7,44.2,30.20,East,90,0.0,0.0,78,0.00,,,0.00,WUHU21636XXSP,2013-04-27 09:08:00,
2013-04-27 02:09:00,50.7,44.2,30.20,East,90,0.0,0.0,78,0.00,,,0.00,WUHU21636XXSP,2013-04-27 09:09:00,
2013-04-27 02:10:00,50.5,44.0,30.20,East,90,0.0,0.0,78,0.00,,,0.00,WUHU21636XXSP,2013-04-27 09:10:00,
2013-04-27 02:13:00,50.5,43.7,30.20,East,90,0.0,0.0,77,0.00,,,0.00,WUHU21636XXSP,2013-04-27 09:13:00,
2013-04-27 02:14:00,50.5,44.0,30.20,East,90,0.0,0.0,78,0.00,,,0.00,WUHU21636XXSP,2013-04-27 09:14:00,
2013-04-27 02:15:00,50.5,44.0,30.20,East,90,0.0,0.0,78,0.00,,,0.00,WUHU21636XXSP,2013-04-27 09:15:00,
2013-04-27 02:18:00,50.5,44.0,30.20,East,90,0.0,0.0,78,0.00,,,0.00,WUHU21636XXSP,2013-04-27 09:18:00,
2013-04-27 02:19:00,50.5,44.0,30.20,East,90,0.0,0.0,78,0.00,,,0.00,WUHU21636XXSP,2013-04-27 09:19:00,
2013-04-27 02:20:00,50.5,44.0,30.20,East,90,0.0,0.0,78,0.00,,,0.00,WUHU21636XXSP,2013-04-27 09:20:00,
2013-04-27 02:23:00,50.5,44.0,30.20,East,90,0.0,0.0,78,0.00,,,0.00,WUHU21636XXSP,2013-04-27 09:23:00,
2013-04-27 02:24:00,50.5,44.0,30.20,East,90,0.0,0.0,78,0.00,,,0.00,WUHU21636XXSP,2013-04-27 09:24:00,
2013-04-27 02:26:00,50.5,43.7,30.20,East,90,0.0,0.0,77,0.00,,,0.00,WUHU21636XXSP,2013-04-27 09:26:00,
2013-04-27 02:29:00,50.5,43.7,30.20,East,90,0.0,0.0,77,0.00,,,0.00,WUHU21636XXSP,2013-04-27 09:29:00,
2013-04-27 02:30:00,50.5,43.7,30.20,East,90,0.0,0.0,77,0.00,,,0.00,WUHU21636XXSP,2013-04-27 09:30:00,
2013-04-27 02:31:00,50.4,43.9,30.21,East,90,0.0,0.0,78,0.00,,,0.00,WUHU21636XXSP,2013-04-27 09:31:00,
2013-04-27 02:34:00,50.4,43.9,30.21,East,90,0.0,0.0,78,0.00,,,0.00,WUHU21636XXSP,2013-04-27 09:34:00,
2013-04-27 02:35:00,50.4,43.9,30.20,East,90,0.0,0.0,78,0.00,,,0.00,WUHU21636XXSP,2013-04-27 09:35:00,
2013-04-27 02:36:00,50.4,43.9,30.20,East,90,0.0,0.0,78,0.00,,,0.00,WUHU21636XXSP,2013-04-27 09:36:00,
2013-04-27 02:39:00,50.4,43.9,30.20,East,90,0.0,0.0,78,0.00,,,0.00,WUHU21636XXSP,2013-04-27 09:39:00,
2013-04-27 02:40:00,50.4,43.9,30.20,East,90,0.0,0.0,78,0.00,,,0.00,WUHU21636XXSP,2013-04-27 09:40:00,
2013-04-27 02:41:00,50.4,43.9,30.20,East,90,0.0,0.0,78,0.00,,,0.00,WUHU21636XXSP,2013-04-27 09:41:00,
2013-04-27 02:44:00,50.2,44.1,30.19,East,90,0.0,0.0,79,0.00,,,0.00,WUHU21636XXSP,2013-04-27 09:44:00,
2013-04-27 02:45:00,50.2,44.1,30.19,East,90,0.0,0.0,79,0.00,,,0.00,WUHU21636XXSP,2013-04-27 09:45:00,
2013-04-27 02:46:00,50.2,43.7,30.20,East,90,0.0,0.0,78,0.00,,,0.00,WUHU21636XXSP,2013-04-27 09:46:00,
2013-04-27 02:47:00,50.2,43.7,30.20,East,90,0.0,0.0,78,0.00,,,0.00,WUHU21636XXSP,2013-04-27 09:47:00,
2013-04-27 02:49:00,50.2,44.1,30.20,East,90,0.0,0.0,79,0.00,,,0.00,WUHU21636XXSP,2013-04-27 09:49:00,
2013-04-27 02:50:00,50.2,44.1,30.20,East,90,0.0,0.0,79,0.00,,,0.00,WUHU21636XXSP,2013-04-27 09:50:00,
2013-04-27 02:51:00,50.2,43.7,30.20,East,90,0.0,0.0,78,0.00,,,0.00,WUHU21636XXSP,2013-04-27 09:51:00,
2013-04-27 02:52:00,50.2,43.7,30.19,East,90,0.0,0.0,78,0.00,,,0.00,WUHU21636XXSP,2013-04-27 09:52:00,
2013-04-27 02:54:00,50.2,43.7,30.19,East,90,0.0,0.0,78,0.00,,,0.00,WUHU21636XXSP,2013-04-27 09:54:00,
2013-04-27 02:55:00,50.2,43.7,30.19,East,90,0.0,0.0,78,0.00,,,0.00,WUHU21636XXSP,2013-04-27 09:55:00,
2013-04-27 02:57:00,50.2,44.1,30.19,East,90,0.0,0.0,79,0.00,,,0.00,WUHU21636XXSP,2013-04-27 09:57:00,
2013-04-27 02:59:00,50.2,44.4,30.19,East,90,0.0,0.0,80,0.00,,,0.00,WUHU21636XXSP,2013-04-27 09:59:00,
2013-04-27 03:00:00,50.2,44.4,30.20,East,90,0.0,0.0,80,0.00,,,0.00,WUHU21636XXSP,2013-04-27 10:00:00,
2013-04-27 03:01:00,50.2,44.4,30.19,East,90,0.0,0.0,80,0.00,,,0.00,WUHU21636XXSP,2013-04-27 10:01:00,
2013-04-27 03:02:00,50.2,44.4,30.19,East,90,0.0,0.0,80,0.00,,,0.00,WUHU21636XXSP,2013-04-27 10:02:00,
2013-04-27 03:05:00,50.2,44.4,30.19,East,90,0.0,0.0,80,0.00,,,0.00,WUHU21636XXSP,2013-04-27 10:05:00,
2013-04-27 03:06:00,50.0,44.2,30.19,East,90,0.0,0.0,80,0.00,,,0.00,WUHU21636XXSP,2013-04-27 10:06:00,
2013-04-27 03:07:00,50.0,44.2,30.19,East,90,0.0,0.0,80,0.00,,,0.00,WUHU21636XXSP,2013-04-27 10:07:00,
2013-04-27 03:10:00,50.0,44.5,30.19,East,90,0.0,0.0,81,0.00,,,0.00,WUHU21636XXSP,2013-04-27 10:10:00,
2013-04-27 03:12:00,50.0,44.2,30.19,East,90,0.0,0.0,80,0.00,,,0.00,WUHU21636XXSP,2013-04-27 10:12:00,
2013-04-27 03:15:00,50.0,44.2,30.19,East,90,0.0,0.0,80,0.00,,,0.00,WUHU21636XXSP,2013-04-27 10:15:00,
2013-04-27 03:17:00,50.0,44.2,30.19,East,90,0.0,0.0,80,0.00,,,0.00,WUHU21636XXSP,2013-04-27 10:17:00,
2013-04-27 03:18:00,50.0,44.5,30.19,East,90,0.0,0.0,81,0.00,,,0.00,WUHU21636XXSP,2013-04-27 10:18:00,
2013-04-27 03:20:00,50.0,44.5,30.19,East,90,0.0,0.0,81,0.00,,,0.00,WUHU21636XXSP,2013-04-27 10:20:00,
2013-04-27 03:21:00,50.0,44.5,30.19,East,90,0.0,0.0,81,0.00,,,0.00,WUHU21636XXSP,2013-04-27 10:21:00,
2013-04-27 03:22:00,50.0,44.5,30.19,East,90,0.0,0.0,81,0.00,,,0.00,WUHU21636XXSP,2013-04-27 10:22:00,
2013-04-27 03:23:00,49.8,44.3,30.19,East,90,0.0,0.0,81,0.00,,,0.00,WUHU21636XXSP,2013-04-27 10:23:00,
2013-04-27 03:25:00,49.8,44.7,30.19,East,90,0.0,0.0,82,0.00,,,0.00,WUHU21636XXSP,2013-04-27 10:25:00,
2013-04-27 03:26:00,49.8,44.7,30.19,East,90,0.0,0.0,82,0.00,,,0.00,WUHU21636XXSP,2013-04-27 10:26:00,
2013-04-27 03:27:00,49.8,44.3,30.19,East,90,0.0,0.0,81,0.00,,,0.00,WUHU21636XXSP,2013-04-27 10:27:00,
2013-04-27 03:28:00,49.8,44.3,30.19,East,90,0.0,0.0,81,0.00,,,0.00,WUHU21636XXSP,2013-04-27 10:28:00,
2013-04-27 03:29:00,49.8,44.3,30.19,East,90,0.0,0.0,81,0.00,,,0.00,WUHU21636XXSP,2013-04-27 10:29:00,
2013-04-27 03:31:00,49.8,44.7,30.19,East,90,0.0,0.0,82,0.00,,,0.00,WUHU21636XXSP,2013-04-27 10:31:00,
2013-04-27 03:33:00,49.8,44.7,30.19,East,90,0.0,0.0,82,0.00,,,0.00,WUHU21636XXSP,2013-04-27 10:33:00,
2013-04-27 03:34:00,49.8,44.7,30.19,East,90,0.0,0.0,82,0.00,,,0.00,WUHU21636XXSP,2013-04-27 10:34:00,
2013-04-27 03:36:00,49.8,44.7,30.19,East,90,0.0,0.0,82,0.00,,,0.00,WUHU21636XXSP,2013-04-27 10:36:00,
2013-04-27 03:38:00,49.8,44.7,30.18,East,90,0.0,0.0,82,0.00,,,0.00,WUHU21636XXSP,2013-04-27 10:38:00,
2013-04-27 03:39:00,49.8,44.7,30.19,East,90,0.0,0.0,82,0.00,,,0.00,WUHU21636XXSP,2013-04-27 10:39:00,
2013-04-27 03:41:00,49.8,44.7,30.18,East,90,0.0,0.0,82,0.00,,,0.00,WUHU21636XXSP,2013-04-27 10:41:00,
2013-04-27 03:42:00,49.6,44.5,30.18,East,90,0.0,0.0,82,0.00,,,0.00,WUHU21636XXSP,2013-04-27 10:42:00,
2013-04-27 03:43:00,49.6,44.5,30.18,East,90,0.0,0.0,82,0.00,,,0.00,WUHU21636XXSP,2013-04-27 10:43:00,
2013-04-27 03:44:00,49.6,44.1,30.18,ESE,112,0.0,0.0,81,0.00,,,0.00,WUHU21636XXSP,2013-04-27 10:44:00,
2013-04-27 03:46:00,49.6,44.1,30.18,ESE,112,0.0,0.0,81,0.00,,,0.00,WUHU21636XXSP,2013-04-27 10:46:00,
2013-04-27 03:47:00,49.6,44.1,30.18,ESE,112,0.0,0.0,81,0.00,,,0.00,WUHU21636XXSP,2013-04-27 10:47:00,
2013-04-27 03:48:00,49.6,44.1,30.18,ESE,112,0.0,0.0,81,0.00,,,0.00,WUHU21636XXSP,2013-04-27 10:48:00,
2013-04-27 03:50:00,49.6,44.1,30.18,ESE,112,0.0,0.0,81,0.00,,,0.00,WUHU21636XXSP,2013-04-27 10:50:00,
2013-04-27 03:51:00,49.6,44.1,30.18,ESE,112,0.0,0.0,81,0.00,,,0.00,WUHU21636XXSP,2013-04-27 10:51:00,
2013-04-27 03:52:00,49.6,44.1,30.19,ESE,112,0.0,0.0,81,0.00,,,0.00,WUHU21636XXSP,2013-04-27 10:52:00,
2013-04-27 03:53:00,49.6,44.1,30.19,ESE,112,0.0,0.0,81,0.00,,,0.00,WUHU21636XXSP,2013-04-27 10:53:00,
2013-04-27 03:54:00,49.6,44.1,30.19,ESE,112,0.0,0.0,81,0.00,,,0.00,WUHU21636XXSP,2013-04-27 10:54:00,
2013-04-27 03:55:00,49.6,44.1,30.19,ESE,112,0.0,0.0,81,0.00,,,0.00,WUHU21636XXSP,2013-04-27 10:55:00,
2013-04-27 03:56:00,49.6,44.1,30.18,ESE,112,0.0,0.0,81,0.00,,,0.00,WUHU21636XXSP,2013-04-27 10:56:00,
2013-04-27 03:57:00,49.6,44.1,30.19,ESE,112,0.0,0.0,81,0.00,,,0.00,WUHU21636XXSP,2013-04-27 10:57:00,
2013-04-27 03:59:00,49.6,44.1,30.19,ESE,112,0.0,0.0,81,0.00,,,0.00,WUHU21636XXSP,2013-04-27 10:59:00,
2013-04-27 04:00:00,49.6,44.1,30.19,ESE,112,0.0,0.0,81,0.00,,,0.00,WUHU21636XXSP,2013-04-27 11:00:00,
2013-04-27 04:01:00,49.6,44.1,30.19,ESE,112,0.0,0.0,81,0.00,,,0.00,WUHU21636XXSP,2013-04-27 11:01:00,
2013-04-27 04:02:00,49.6,44.1,30.19,ESE,112,0.0,0.0,81,0.00,,,0.00,WUHU21636XXSP,2013-04-27 11:02:00,
2013-04-27 04:04:00,49.6,44.1,30.19,ESE,112,0.0,0.0,81,0.00,,,0.00,WUHU21636XXSP,2013-04-27 11:04:00,
2013-04-27 04:05:00,49.6,44.1,30.18,ESE,112,0.0,0.0,81,0.00,,,0.00,WUHU21636XXSP,2013-04-27 11:05:00,
2013-04-27 04:06:00,49.6,44.1,30.19,ESE,112,0.0,0.0,81,0.00,,,0.00,WUHU21636XXSP,2013-04-27 11:06:00,
2013-04-27 04:08:00,49.5,44.4,30.19,ESE,112,0.0,0.0,82,0.00,,,0.00,WUHU21636XXSP,2013-04-27 11:08:00,
2013-04-27 04:10:00,49.5,44.4,30.19,ESE,112,0.0,0.0,82,0.00,,,0.00,WUHU21636XXSP,2013-04-27 11:10:00,
2013-04-27 04:11:00,49.5,44.4,30.19,ESE,112,0.0,0.0,82,0.00,,,0.00,WUHU21636XXSP,2013-04-27 11:11:00,
2013-04-27 04:13:00,49.5,44.4,30.19,ESE,112,0.0,0.0,82,0.00,,,0.00,WUHU21636XXSP,2013-04-27 11:13:00,
2013-04-27 04:15:00,49.3,44.2,30.19,ESE,112,0.0,0.0,82,0.00,,,0.00,WUHU21636XXSP,2013-04-27 11:15:00,
2013-04-27 04:16:00,49.3,44.2,30.19,ESE,112,0.0,0.0,82,0.00,,,0.00,WUHU21636XXSP,2013-04-27 11:16:00,
2013-04-27 04:18:00,49.3,44.2,30.19,ESE,112,0.0,0.0,82,0.00,,,0.00,WUHU21636XXSP,2013-04-27 11:18:00,
2013-04-27 04:20:00,49.3,44.5,30.19,ESE,112,0.0,0.0,83,0.00,,,0.00,WUHU21636XXSP,2013-04-27 11:20:00,
2013-04-27 04:21:00,49.3,44.2,30.18,ESE,112,0.0,0.0,82,0.00,,,0.00,WUHU21636XXSP,2013-04-27 11:21:00,
2013-04-27 04:22:00,49.3,44.2,30.18,ESE,112,0.0,0.0,82,0.00,,,0.00,WUHU21636XXSP,2013-04-27 11:22:00,
2013-04-27 04:23:00,49.3,44.5,30.18,ESE,112,0.0,0.0,83,0.00,,,0.00,WUHU21636XXSP,2013-04-27 11:23:00,
2013-04-27 04:25:00,49.3,44.5,30.19,ESE,112,0.0,0.0,83,0.00,,,0.00,WUHU21636XXSP,2013-04-27 11:25:00,
2013-04-27 04:27:00,49.3,44.5,30.19,ESE,112,0.0,0.0,83,0.00,,,0.00,WUHU21636XXSP,2013-04-27 11:27:00,
2013-04-27 04:28:00,49.3,44.5,30.18,ESE,112,0.0,0.0,83,0.00,,,0.00,WUHU21636XXSP,2013-04-27 11:28:00,
2013-04-27 04:30:00,49.3,44.5,30.19,ESE,112,0.0,0.0,83,0.00,,,0.00,WUHU21636XXSP,2013-04-27 11:30:00,
2013-04-27 04:31:00,49.3,44.5,30.19,ESE,112,0.0,0.0,83,0.00,,,0.00,WUHU21636XXSP,2013-04-27 11:31:00,
2013-04-27 04:32:00,49.1,44.3,30.18,ESE,112,0.0,0.0,83,0.00,,,0.00,WUHU21636XXSP,2013-04-27 11:32:00,
2013-04-27 04:33:00,49.1,44.3,30.19,ESE,112,0.0,0.0,83,0.00,,,0.00,WUHU21636XXSP,2013-04-27 11:33:00,
2013-04-27 04:34:00,49.1,44.3,30.19,ESE,112,0.0,0.0,83,0.00,,,0.00,WUHU21636XXSP,2013-04-27 11:34:00,
2013-04-27 04:36:00,49.1,44.3,30.18,ESE,112,0.0,0.0,83,0.00,,,0.00,WUHU21636XXSP,2013-04-27 11:36:00,
2013-04-27 04:37:00,49.1,44.3,30.18,ESE,112,0.0,0.0,83,0.00,,,0.00,WUHU21636XXSP,2013-04-27 11:37:00,
2013-04-27 04:38:00,49.1,44.3,30.18,ESE,112,0.0,0.0,83,0.00,,,0.00,WUHU21636XXSP,2013-04-27 11:38:00,
2013-04-27 04:39:00,49.1,44.3,30.18,ESE,112,0.0,0.0,83,0.00,,,0.00,WUHU21636XXSP,2013-04-27 11:39:00,
2013-04-27 04:41:00,48.9,44.1,30.18,ESE,112,0.0,0.0,83,0.00,,,0.00,WUHU21636XXSP,2013-04-27 11:41:00,
2013-04-27 04:42:00,48.9,44.1,30.18,ESE,112,0.0,0.0,83,0.00,,,0.00,WUHU21636XXSP,2013-04-27 11:42:00,
2013-04-27 04:43:00,48.9,44.1,30.18,ESE,112,0.0,0.0,83,0.00,,,0.00,WUHU21636XXSP,2013-04-27 11:43:00,
2013-04-27 04:45:00,48.9,44.1,30.18,ESE,112,0.0,0.0,83,0.00,,,0.00,WUHU21636XXSP,2013-04-27 11:45:00,
2013-04-27 04:46:00,48.9,44.1,30.18,ESE,112,0.0,0.0,83,0.00,,,0.00,WUHU21636XXSP,2013-04-27 11:46:00,
2013-04-27 04:48:00,48.9,44.1,30.19,ESE,112,0.0,0.0,83,0.00,,,0.00,WUHU21636XXSP,2013-04-27 11:48:00,
2013-04-27 04:50:00,48.9,44.1,30.18,ESE,112,0.0,0.0,83,0.00,,,0.00,WUHU21636XXSP,2013-04-27 11:50:00,
2013-04-27 04:51:00,48.9,44.1,30.18,ESE,112,0.0,0.0,83,0.00,,,0.00,WUHU21636XXSP,2013-04-27 11:51:00,
2013-04-27 04:53:00,48.9,44.1,30.19,ESE,112,0.0,0.0,83,0.00,,,0.00,WUHU21636XXSP,2013-04-27 11:53:00,
2013-04-27 04:55:00,48.9,44.1,30.19,ESE,112,0.0,0.0,83,0.00,,,0.00,WUHU21636XXSP,2013-04-27 11:55:00,
2013-04-27 04:56:00,48.9,44.1,30.19,ESE,112,0.0,0.0,83,0.00,,,0.00,WUHU21636XXSP,2013-04-27 11:56:00,
2013-04-27 04:58:00,48.9,44.1,30.18,ESE,112,0.0,0.0,83,0.00,,,0.00,WUHU21636XXSP,2013-04-27 11:58:00,
2013-04-27 05:00:00,48.9,44.1,30.18,ESE,112,0.0,0.0,83,0.00,,,0.00,WUHU21636XXSP,2013-04-27 12:00:00,
2013-04-27 05:01:00,48.9,44.1,30.18,ESE,112,0.0,0.0,83,0.00,,,0.00,WUHU21636XXSP,2013-04-27 12:01:00,
2013-04-27 05:03:00,48.7,43.9,30.18,ESE,112,0.0,0.0,83,0.00,,,0.00,WUHU21636XXSP,2013-04-27 12:03:00,
2013-04-27 05:04:00,48.7,43.9,30.18,ESE,112,0.0,0.0,83,0.00,,,0.00,WUHU21636XXSP,2013-04-27 12:04:00,
2013-04-27 05:05:00,48.7,43.9,30.18,ESE,112,0.0,0.0,83,0.00,,,0.00,WUHU21636XXSP,2013-04-27 12:05:00,
2013-04-27 05:06:00,48.7,43.9,30.18,ESE,112,0.0,0.0,83,0.00,,,0.00,WUHU21636XXSP,2013-04-27 12:06:00,
2013-04-27 05:09:00,48.7,44.2,30.18,ESE,112,0.0,0.0,85,0.00,,,0.00,WUHU21636XXSP,2013-04-27 12:09:00,
2013-04-27 05:10:00,48.7,44.2,30.18,ESE,112,0.0,0.0,85,0.00,,,0.00,WUHU21636XXSP,2013-04-27 12:10:00,
2013-04-27 05:11:00,48.7,44.2,30.18,ESE,112,0.0,0.0,85,0.00,,,0.00,WUHU21636XXSP,2013-04-27 12:11:00,
2013-04-27 05:14:00,48.6,44.1,30.18,ESE,112,0.0,0.0,85,0.00,,,0.00,WUHU21636XXSP,2013-04-27 12:14:00,
2013-04-27 05:15:00,48.6,44.1,30.18,ESE,112,0.0,0.0,85,0.00,,,0.00,WUHU21636XXSP,2013-04-27 12:15:00,
2013-04-27 05:16:00,48.6,44.1,30.17,ESE,112,0.0,0.0,85,0.00,,,0.00,WUHU21636XXSP,2013-04-27 12:16:00,
2013-04-27 05:19:00,48.6,44.1,30.18,ESE,112,0.0,0.0,85,0.00,,,0.00,WUHU21636XXSP,2013-04-27 12:19:00,
2013-04-27 05:20:00,48.6,44.1,30.17,ESE,112,0.0,0.0,85,0.00,,,0.00,WUHU21636XXSP,2013-04-27 12:20:00,
2013-04-27 05:22:00,48.6,44.4,30.17,ESE,112,0.0,0.0,86,0.00,,,0.00,WUHU21636XXSP,2013-04-27 12:22:00,
2013-04-27 05:24:00,48.6,44.4,30.18,ESE,112,0.0,0.0,86,0.00,,,0.00,WUHU21636XXSP,2013-04-27 12:24:00,
2013-04-27 05:25:00,48.6,44.4,30.18,ESE,112,0.0,0.0,86,0.00,,,0.00,WUHU21636XXSP,2013-04-27 12:25:00,
2013-04-27 05:27:00,48.6,44.4,30.17,ESE,112,0.0,0.0,86,0.00,,,0.00,WUHU21636XXSP,2013-04-27 12:27:00,
2013-04-27 05:29:00,48.6,44.4,30.17,ESE,112,0.0,0.0,86,0.00,,,0.00,WUHU21636XXSP,2013-04-27 12:29:00,
2013-04-27 05:30:00,48.6,44.4,30.17,ESE,112,0.0,0.0,86,0.00,,,0.00,WUHU21636XXSP,2013-04-27 12:30:00,
2013-04-27 05:31:00,48.6,44.4,30.17,ESE,112,0.0,0.0,86,0.00,,,0.00,WUHU21636XXSP,2013-04-27 12:31:00,
2013-04-27 05:32:00,48.6,44.4,30.18,ESE,112,0.0,0.0,86,0.00,,,0.00,WUHU21636XXSP,2013-04-27 12:32:00,
2013-04-27 05:34:00,48.7,44.5,30.17,ESE,112,0.0,0.0,86,0.00,,,0.00,WUHU21636XXSP,2013-04-27 12:34:00,
2013-04-27 05:35:00,48.7,44.5,30.17,ESE,112,0.0,0.0,86,0.00,,,0.00,WUHU21636XXSP,2013-04-27 12:35:00,
2013-04-27 05:36:00,48.6,44.4,30.17,ESE,112,0.0,0.0,86,0.00,,,0.00,WUHU21636XXSP,2013-04-27 12:36:00,
2013-04-27 05:37:00,48.6,44.4,30.17,ESE,112,0.0,0.0,86,0.00,,,0.00,WUHU21636XXSP,2013-04-27 12:37:00,
2013-04-27 05:39:00,48.7,44.5,30.17,ESE,112,0.0,0.0,86,0.00,,,0.00,WUHU21636XXSP,2013-04-27 12:39:00,
2013-04-27 05:40:00,48.7,44.8,30.17,ESE,112,0.0,0.0,87,0.00,,,0.00,WUHU21636XXSP,2013-04-27 12:40:00,
2013-04-27 05:41:00,48.7,44.8,30.17,ESE,112,0.0,0.0,87,0.00,,,0.00,WUHU21636XXSP,2013-04-27 12:41:00,
2013-04-27 05:42:00,48.7,44.8,30.17,ESE,112,0.0,0.0,87,0.00,,,0.00,WUHU21636XXSP,2013-04-27 12:42:00,
2013-04-27 05:43:00,48.7,44.8,30.17,ESE,112,0.0,0.0,87,0.00,,,0.00,WUHU21636XXSP,2013-04-27 12:43:00,
2013-04-27 05:45:00,48.6,44.7,30.17,ESE,112,0.0,0.0,87,0.00,,,0.00,WUHU21636XXSP,2013-04-27 12:45:00,
2013-04-27 05:47:00,48.7,44.8,30.17,ESE,112,0.0,0.0,87,0.00,,,0.00,WUHU21636XXSP,2013-04-27 12:47:00,
2013-04-27 05:48:00,48.7,44.8,30.17,ESE,112,0.0,0.0,87,0.00,,,0.00,WUHU21636XXSP,2013-04-27 12:48:00,
2013-04-27 05:50:00,48.6,44.7,30.17,ESE,112,0.0,0.0,87,0.00,,,0.00,WUHU21636XXSP,2013-04-27 12:50:00,
2013-04-27 05:52:00,48.7,44.8,30.17,ESE,112,0.0,0.0,87,0.00,,,0.00,WUHU21636XXSP,2013-04-27 12:52:00,
2013-04-27 05:53:00,48.6,44.7,30.17,ESE,112,0.0,0.0,87,0.00,,,0.00,WUHU21636XXSP,2013-04-27 12:53:00,
2013-04-27 05:55:00,48.6,44.7,30.17,ESE,112,0.0,0.0,87,0.00,,,0.00,WUHU21636XXSP,2013-04-27 12:55:00,
2013-04-27 05:57:00,48.7,44.8,30.17,ESE,112,0.0,0.0,87,0.00,,,0.00,WUHU21636XXSP,2013-04-27 12:57:00,
2013-04-27 05:58:00,48.7,44.8,30.17,ESE,112,0.0,0.0,87,0.00,,,0.00,WUHU21636XXSP,2013-04-27 12:58:00,
2013-04-27 06:00:00,48.7,44.8,30.17,ESE,112,0.0,0.0,87,0.00,,,0.00,WUHU21636XXSP,2013-04-27 13:00:00,
2013-04-27 06:01:00,48.7,44.8,30.17,ESE,112,0.0,0.0,87,0.00,,,0.00,WUHU21636XXSP,2013-04-27 13:01:00,
2013-04-27 06:02:00,48.7,44.8,30.17,ESE,112,0.0,0.0,87,0.00,,,0.00,WUHU21636XXSP,2013-04-27 13:02:00,
2013-04-27 06:03:00,48.7,44.8,30.17,ESE,112,0.0,0.0,87,0.00,,,0.00,WUHU21636XXSP,2013-04-27 13:03:00,
2013-04-27 06:04:00,48.7,44.8,30.17,ESE,112,0.0,0.0,87,0.00,,,0.00,WUHU21636XXSP,2013-04-27 13:04:00,
2013-04-27 06:05:00,48.6,44.7,30.17,ESE,112,0.0,0.0,87,0.00,,,0.00,WUHU21636XXSP,2013-04-27 13:05:00,
2013-04-27 06:06:00,48.6,44.7,30.17,ESE,112,0.0,0.0,87,0.00,,,0.00,WUHU21636XXSP,2013-04-27 13:06:00,
2013-04-27 06:08:00,48.6,44.7,30.17,ESE,112,0.0,0.0,87,0.00,,,0.00,WUHU21636XXSP,2013-04-27 13:08:00,
2013-04-27 06:09:00,48.4,44.8,30.17,ESE,112,0.0,0.0,88,0.00,,,0.00,WUHU21636XXSP,2013-04-27 13:09:00,
2013-04-27 06:10:00,48.4,44.8,30.16,ESE,112,0.0,0.0,88,0.00,,,0.00,WUHU21636XXSP,2013-04-27 13:10:00,
2013-04-27 06:11:00,48.4,44.8,30.16,ESE,112,0.0,0.0,88,0.00,,,0.00,WUHU21636XXSP,2013-04-27 13:11:00,
2013-04-27 06:13:00,48.4,44.8,30.16,ESE,112,0.0,0.0,88,0.00,,,0.00,WUHU21636XXSP,2013-04-27 13:13:00,
2013-04-27 06:14:00,48.4,44.8,30.16,ESE,112,0.0,0.0,88,0.00,,,0.00,WUHU21636XXSP,2013-04-27 13:14:00,
2013-04-27 06:15:00,48.4,44.8,30.16,ESE,112,0.0,0.0,88,0.00,,,0.00,WUHU21636XXSP,2013-04-27 13:15:00,
2013-04-27 06:16:00,48.4,44.8,30.16,ESE,112,0.0,0.0,88,0.00,,,0.00,WUHU21636XXSP,2013-04-27 13:16:00,
2013-04-27 06:18:00,48.4,44.5,30.16,ESE,112,0.0,0.0,87,0.00,,,0.00,WUHU21636XXSP,2013-04-27 13:18:00,
2013-04-27 06:19:00,48.6,44.7,30.17,ESE,112,0.0,0.0,87,0.00,,,0.00,WUHU21636XXSP,2013-04-27 13:19:00,
2013-04-27 06:20:00,48.6,44.7,30.17,ESE,112,0.0,0.0,87,0.00,,,0.00,WUHU21636XXSP,2013-04-27 13:20:00,
2013-04-27 06:22:00,48.6,44.7,30.17,ESE,112,0.0,0.0,87,0.00,,,0.00,WUHU21636XXSP,2013-04-27 13:22:00,
2013-04-27 06:23:00,48.6,44.7,30.17,ESE,112,0.0,0.0,87,0.00,,,0.00,WUHU21636XXSP,2013-04-27 13:23:00,
2013-04-27 06:24:00,48.4,44.5,30.17,ESE,112,0.0,0.0,87,0.00,,,0.00,WUHU21636XXSP,2013-04-27 13:24:00,
2013-04-27 06:26:00,48.6,44.7,30.17,ESE,112,0.0,0.0,87,0.00,,,0.00,WUHU21636XXSP,2013-04-27 13:26:00,
2013-04-27 06:27:00,48.6,44.7,30.17,ESE,112,0.0,0.0,87,0.00,,,0.00,WUHU21636XXSP,2013-04-27 13:27:00,
2013-04-27 06:28:00,48.6,44.7,30.17,ESE,112,0.0,0.0,87,0.00,,,0.00,WUHU21636XXSP,2013-04-27 13:28:00,
2013-04-27 06:29:00,48.6,44.7,30.17,ESE,112,0.0,0.0,87,0.00,,,0.00,WUHU21636XXSP,2013-04-27 13:29:00,
2013-04-27 06:31:00,48.6,44.7,30.17,ESE,112,0.0,0.0,87,0.00,,,0.00,WUHU21636XXSP,2013-04-27 13:31:00,
2013-04-27 06:32:00,48.6,44.7,30.17,ESE,112,0.0,0.0,87,0.00,,,0.00,WUHU21636XXSP,2013-04-27 13:32:00,
2013-04-27 06:33:00,48.6,44.7,30.17,ESE,112,0.0,0.0,87,0.00,,,0.00,WUHU21636XXSP,2013-04-27 13:33:00,
2013-04-27 06:34:00,48.6,44.7,30.17,ESE,112,0.0,0.0,87,0.00,,,0.00,WUHU21636XXSP,2013-04-27 13:34:00,
2013-04-27 06:36:00,48.6,44.7,30.17,ESE,112,0.0,0.0,87,0.00,,,0.00,WUHU21636XXSP,2013-04-27 13:36:00,
2013-04-27 06:37:00,48.6,44.4,30.17,ESE,112,0.0,0.0,86,0.00,,,0.00,WUHU21636XXSP,2013-04-27 13:37:00,
2013-04-27 06:38:00,48.6,44.4,30.17,ESE,112,0.0,0.0,86,0.00,,,0.00,WUHU21636XXSP,2013-04-27 13:38:00,
2013-04-27 06:39:00,48.6,44.7,30.17,ESE,112,0.0,0.0,87,0.00,,,0.00,WUHU21636XXSP,2013-04-27 13:39:00,
2013-04-27 06:40:00,48.6,44.7,30.17,ESE,112,0.0,0.0,87,0.00,,,0.00,WUHU21636XXSP,2013-04-27 13:40:00,
2013-04-27 06:41:00,48.4,44.2,30.17,ESE,112,0.0,0.0,86,0.00,,,0.00,WUHU21636XXSP,2013-04-27 13:41:00,
2013-04-27 06:42:00,48.4,44.2,30.17,ESE,112,0.0,0.0,86,0.00,,,0.00,WUHU21636XXSP,2013-04-27 13:42:00,
2013-04-27 06:43:00,48.4,44.2,30.17,ESE,112,0.0,0.0,86,0.00,,,0.00,WUHU21636XXSP,2013-04-27 13:43:00,
2013-04-27 06:44:00,48.4,44.2,30.17,ESE,112,0.0,0.0,86,0.00,,,0.00,WUHU21636XXSP,2013-04-27 13:44:00,
2013-04-27 06:48:00,48.4,44.2,30.17,ESE,112,0.0,0.0,86,0.00,,,0.00,WUHU21636XXSP,2013-04-27 13:48:00,
2013-04-27 06:49:00,48.6,44.4,30.17,ESE,112,0.0,0.0,86,0.00,,,0.00,WUHU21636XXSP,2013-04-27 13:49:00,
2013-04-27 06:53:00,48.6,44.7,30.17,ESE,112,0.0,0.0,87,0.00,,,0.00,WUHU21636XXSP,2013-04-27 13:53:00,
2013-04-27 06:54:00,48.4,44.5,30.17,ESE,112,0.0,0.0,87,0.00,,,0.00,WUHU21636XXSP,2013-04-27 13:54:00,
2013-04-27 06:58:00,48.4,44.5,30.17,ESE,112,0.0,0.0,87,0.00,,,0.00,WUHU21636XXSP,2013-04-27 13:58:00,
2013-04-27 06:59:00,48.4,44.5,30.17,ESE,112,0.0,0.0,87,0.00,,,0.00,WUHU21636XXSP,2013-04-27 13:59:00,
2013-04-27 07:00:00,48.4,44.5,30.17,ESE,112,0.0,0.0,87,0.00,,,0.00,WUHU21636XXSP,2013-04-27 14:00:00,
2013-04-27 07:03:00,48.4,44.2,30.17,ESE,112,0.0,0.0,86,0.00,,,0.00,WUHU21636XXSP,2013-04-27 14:03:00,
2013-04-27 07:04:00,48.4,44.2,30.17,ESE,112,0.0,0.0,86,0.00,,,0.00,WUHU21636XXSP,2013-04-27 14:04:00,
2013-04-27 07:05:00,48.4,44.2,30.17,ESE,112,0.0,0.0,86,0.00,,,0.00,WUHU21636XXSP,2013-04-27 14:05:00,
2013-04-27 07:09:00,48.6,44.4,30.18,ESE,112,0.0,0.0,86,0.00,,,0.00,WUHU21636XXSP,2013-04-27 14:09:00,
2013-04-27 07:10:00,48.4,43.9,30.17,ESE,112,0.0,0.0,85,0.00,,,0.00,WUHU21636XXSP,2013-04-27 14:10:00,
2013-04-27 07:14:00,48.6,44.1,30.17,ESE,112,0.0,0.0,85,0.00,,,0.00,WUHU21636XXSP,2013-04-27 14:14:00,
2013-04-27 07:15:00,48.6,44.1,30.17,ESE,112,0.0,0.0,85,0.00,,,0.00,WUHU21636XXSP,2013-04-27 14:15:00,
2013-04-27 07:19:00,48.6,44.4,30.17,ESE,112,0.0,0.0,86,0.00,,,0.00,WUHU21636XXSP,2013-04-27 14:19:00,
2013-04-27 07:20:00,48.7,43.9,30.17,ESE,112,0.0,0.0,83,0.00,,,0.00,WUHU21636XXSP,2013-04-27 14:20:00,
2013-04-27 07:21:00,48.7,43.9,30.17,ESE,112,0.0,0.0,83,0.00,,,0.00,WUHU21636XXSP,2013-04-27 14:21:00,
2013-04-27 07:24:00,48.7,43.9,30.17,SE,135,0.0,0.0,83,0.00,,,0.00,WUHU21636XXSP,2013-04-27 14:24:00,
2013-04-27 07:25:00,48.7,43.9,30.17,SE,135,0.0,0.0,83,0.00,,,0.00,WUHU21636XXSP,2013-04-27 14:25:00,
2013-04-27 07:26:00,48.7,43.9,30.17,SE,135,0.0,0.0,83,0.00,,,0.00,WUHU21636XXSP,2013-04-27 14:26:00,
2013-04-27 07:29:00,48.7,43.9,30.17,SE,135,0.0,0.0,83,0.00,,,0.00,WUHU21636XXSP,2013-04-27 14:29:00,
2013-04-27 07:30:00,48.7,43.9,30.17,SE,135,0.0,0.0,83,0.00,,,0.00,WUHU21636XXSP,2013-04-27 14:30:00,
2013-04-27 07:31:00,48.7,43.9,30.17,SE,135,0.0,0.0,83,0.00,,,0.00,WUHU21636XXSP,2013-04-27 14:31:00,
2013-04-27 07:34:00,48.7,43.3,30.16,SSE,157,0.0,0.0,81,0.00,,,0.00,WUHU21636XXSP,2013-04-27 14:34:00,
2013-04-27 07:35:00,48.7,43.3,30.16,SSE,157,0.0,0.0,81,0.00,,,0.00,WUHU21636XXSP,2013-04-27 14:35:00,
2013-04-27 07:36:00,48.7,43.3,30.16,SSE,157,0.0,0.0,81,0.00,,,0.00,WUHU21636XXSP,2013-04-27 14:36:00,
2013-04-27 07:40:00,48.7,43.3,30.16,SSE,157,0.0,0.0,81,0.00,,,0.00,WUHU21636XXSP,2013-04-27 14:40:00,
2013-04-27 07:41:00,48.7,43.3,30.16,SE,135,0.0,0.0,81,0.00,,,0.00,WUHU21636XXSP,2013-04-27 14:41:00,
2013-04-27 07:45:00,48.7,43.3,30.17,South,180,0.0,0.0,81,0.00,,,0.00,WUHU21636XXSP,2013-04-27 14:45:00,
2013-04-27 07:46:00,48.7,43.3,30.17,South,180,0.0,0.0,81,0.00,,,0.00,WUHU21636XXSP,2013-04-27 14:46:00,
2013-04-27 07:50:00,48.9,43.5,30.16,South,180,0.0,0.0,81,0.00,,,0.00,WUHU21636XXSP,2013-04-27 14:50:00,
2013-04-27 07:51:00,48.9,43.5,30.16,South,180,0.0,0.0,81,0.00,,,0.00,WUHU21636XXSP,2013-04-27 14:51:00,
2013-04-27 07:52:00,48.9,43.5,30.16,South,180,0.0,0.0,81,0.00,,,0.00,WUHU21636XXSP,2013-04-27 14:52:00,
2013-04-27 07:55:00,48.9,43.1,30.16,South,180,0.0,0.0,80,0.00,,,0.00,WUHU21636XXSP,2013-04-27 14:55:00,
2013-04-27 07:56:00,48.9,43.1,30.16,South,180,0.0,0.0,80,0.00,,,0.00,WUHU21636XXSP,2013-04-27 14:56:00,
2013-04-27 07:57:00,48.9,43.1,30.16,South,180,0.0,0.0,80,0.00,,,0.00,WUHU21636XXSP,2013-04-27 14:57:00,
2013-04-27 08:00:00,48.9,43.1,30.15,South,180,0.0,0.0,80,0.00,,,0.00,WUHU21636XXSP,2013-04-27 15:00:00,
2013-04-27 08:01:00,48.9,43.1,30.15,South,180,0.0,0.0,80,0.00,,,0.00,WUHU21636XXSP,2013-04-27 15:01:00,
2013-04-27 08:02:00,48.9,43.1,30.16,South,180,0.0,0.0,80,0.00,,,0.00,WUHU21636XXSP,2013-04-27 15:02:00,
2013-04-27 08:05:00,49.1,43.3,30.15,SE,135,0.0,0.0,80,0.00,,,0.00,WUHU21636XXSP,2013-04-27 15:05:00,
2013-04-27 08:06:00,49.1,43.3,30.15,SE,135,0.0,0.0,80,0.00,,,0.00,WUHU21636XXSP,2013-04-27 15:06:00,
2013-04-27 08:07:00,48.9,43.1,30.16,SE,135,0.0,0.0,80,0.00,,,0.00,WUHU21636XXSP,2013-04-27 15:07:00,
2013-04-27 08:08:00,48.9,43.1,30.16,SE,135,0.0,0.0,80,0.00,,,0.00,WUHU21636XXSP,2013-04-27 15:08:00,
2013-04-27 08:10:00,49.1,43.3,30.16,SE,135,0.0,0.0,80,0.00,,,0.00,WUHU21636XXSP,2013-04-27 15:10:00,
2013-04-27 08:11:00,49.1,43.3,30.16,SE,135,0.0,0.0,80,0.00,,,0.00,WUHU21636XXSP,2013-04-27 15:11:00,
2013-04-27 08:12:00,49.1,43.3,30.16,SE,135,0.0,0.0,80,0.00,,,0.00,WUHU21636XXSP,2013-04-27 15:12:00,
2013-04-27 08:13:00,49.1,43.3,30.16,SE,135,0.0,0.0,80,0.00,,,0.00,WUHU21636XXSP,2013-04-27 15:13:00,
2013-04-27 08:14:00,49.3,43.2,30.15,SSE,157,0.0,0.0,79,0.00,,,0.00,WUHU21636XXSP,2013-04-27 15:14:00,
2013-04-27 08:16:00,49.3,43.2,30.15,SSE,157,0.0,0.0,79,0.00,,,0.00,WUHU21636XXSP,2013-04-27 15:16:00,
2013-04-27 08:17:00,49.3,43.2,30.15,SSE,157,0.0,0.0,79,0.00,,,0.00,WUHU21636XXSP,2013-04-27 15:17:00,
2013-04-27 08:18:00,49.5,43.4,30.15,South,180,0.0,0.0,79,0.00,,,0.00,WUHU21636XXSP,2013-04-27 15:18:00,
2013-04-27 08:19:00,49.5,43.4,30.15,South,180,0.0,0.0,79,0.00,,,0.00,WUHU21636XXSP,2013-04-27 15:19:00,
2013-04-27 08:20:00,49.5,43.1,30.15,South,180,0.0,0.0,78,0.00,,,0.00,WUHU21636XXSP,2013-04-27 15:20:00,
2013-04-27 08:22:00,49.5,43.1,30.15,South,180,0.0,0.0,78,0.00,,,0.00,WUHU21636XXSP,2013-04-27 15:22:00,
2013-04-27 08:23:00,49.6,43.2,30.15,South,180,0.0,0.0,78,0.00,,,0.00,WUHU21636XXSP,2013-04-27 15:23:00,
2013-04-27 08:24:00,49.6,43.2,30.15,South,180,0.0,0.0,78,0.00,,,0.00,WUHU21636XXSP,2013-04-27 15:24:00,
2013-04-27 08:26:00,49.6,43.2,30.15,South,180,0.0,0.0,78,0.00,,,0.00,WUHU21636XXSP,2013-04-27 15:26:00,
2013-04-27 08:27:00,49.6,43.2,30.15,South,180,0.0,0.0,78,0.00,,,0.00,WUHU21636XXSP,2013-04-27 15:27:00,
2013-04-27 08:28:00,49.6,43.2,30.15,South,180,0.0,0.0,78,0.00,,,0.00,WUHU21636XXSP,2013-04-27 15:28:00,
2013-04-27 08:29:00,49.8,43.0,30.15,SSE,157,0.0,0.0,77,0.00,,,0.00,WUHU21636XXSP,2013-04-27 15:29:00,
2013-04-27 08:31:00,50.0,42.9,30.15,South,180,0.0,0.0,76,0.00,,,0.00,WUHU21636XXSP,2013-04-27 15:31:00,
2013-04-27 08:32:00,50.0,42.9,30.15,South,180,0.0,0.0,76,0.00,,,0.00,WUHU21636XXSP,2013-04-27 15:32:00,
2013-04-27 08:33:00,50.2,43.1,30.15,SSE,157,0.0,0.0,76,0.00,,,0.00,WUHU21636XXSP,2013-04-27 15:33:00,
2013-04-27 08:34:00,50.2,43.1,30.15,SSE,157,0.0,0.0,76,0.00,,,0.00,WUHU21636XXSP,2013-04-27 15:34:00,
2013-04-27 08:37:00,50.2,43.1,30.16,SSE,157,0.0,0.0,76,0.00,,,0.00,WUHU21636XXSP,2013-04-27 15:37:00,
2013-04-27 08:38:00,50.4,43.3,30.16,West,270,0.0,0.0,76,0.00,,,0.00,WUHU21636XXSP,2013-04-27 15:38:00,
2013-04-27 08:39:00,50.4,43.3,30.16,SSW,202,1.1,1.1,76,0.00,,,0.00,WUHU21636XXSP,2013-04-27 15:39:00,
2013-04-27 08:42:00,50.5,43.4,30.16,SSW,202,1.1,1.1,76,0.00,,,0.00,WUHU21636XXSP,2013-04-27 15:42:00,
2013-04-27 08:43:00,50.5,43.4,30.16,SSW,202,1.1,1.1,76,0.00,,,0.00,WUHU21636XXSP,2013-04-27 15:43:00,
2013-04-27 08:44:00,50.5,43.0,30.16,SSE,157,0.0,1.1,75,0.00,,,0.00,WUHU21636XXSP,2013-04-27 15:44:00,
2013-04-27 08:47:00,50.5,43.0,30.16,SW,225,0.0,1.1,75,0.00,,,0.00,WUHU21636XXSP,2013-04-27 15:47:00,
2013-04-27 08:48:00,50.5,43.0,30.16,SW,225,0.0,1.1,75,0.00,,,0.00,WUHU21636XXSP,2013-04-27 15:48:00,
2013-04-27 08:49:00,50.5,42.7,30.16,SSW,202,4.9,4.9,74,0.00,,,0.00,WUHU21636XXSP,2013-04-27 15:49:00,
2013-04-27 08:52:00,50.7,43.2,30.16,SSW,202,0.0,4.9,75,0.00,,,0.00,WUHU21636XXSP,2013-04-27 15:52:00,
2013-04-27 08:53:00,50.7,43.2,30.16,South,180,0.0,4.9,75,0.00,,,0.00,WUHU21636XXSP,2013-04-27 15:53:00,
2013-04-27 08:54:00,50.7,43.2,30.16,South,180,0.0,4.9,75,0.00,,,0.00,WUHU21636XXSP,2013-04-27 15:54:00,
2013-04-27 08:57:00,50.7,42.9,30.16,SW,225,1.5,4.9,74,0.00,,,0.00,WUHU21636XXSP,2013-04-27 15:57:00,
2013-04-27 08:58:00,50.7,42.9,30.16,SW,225,1.5,4.9,74,0.00,,,0.00,WUHU21636XXSP,2013-04-27 15:58:00,
2013-04-27 08:59:00,50.9,43.0,30.16,SW,223,1.5,4.9,74,0.00,,,0.00,WUHU21636XXSP,2013-04-27 15:59:00,
2013-04-27 09:00:00,50.9,43.0,30.16,South,185,1.1,4.9,74,0.00,,,0.00,WUHU21636XXSP,2013-04-27 16:00:00,
2013-04-27 09:02:00,50.9,43.0,30.16,ESE,112,0.8,1.5,74,0.00,,,0.00,WUHU21636XXSP,2013-04-27 16:02:00,
2013-04-27 09:03:00,50.9,43.0,30.16,SSE,157,0.0,1.5,74,0.00,,,0.00,WUHU21636XXSP,2013-04-27 16:03:00,
2013-04-27 09:04:00,50.9,43.0,30.16,SSE,157,0.0,1.5,74,0.00,,,0.00,WUHU21636XXSP,2013-04-27 16:04:00,
2013-04-27 09:05:00,50.9,43.0,30.16,SSE,157,0.0,1.5,74,0.00,,,0.00,WUHU21636XXSP,2013-04-27 16:05:00,
2013-04-27 09:07:00,51.1,43.2,30.16,WSW,247,0.0,1.5,74,0.00,,,0.00,WUHU21636XXSP,2013-04-27 16:07:00,
2013-04-27 09:08:00,51.1,43.2,30.16,WSW,247,0.0,1.5,74,0.00,,,0.00,WUHU21636XXSP,2013-04-27 16:08:00,
2013-04-27 09:09:00,51.1,43.2,30.16,WSW,247,0.0,0.8,74,0.00,,,0.00,WUHU21636XXSP,2013-04-27 16:09:00,
2013-04-27 09:10:00,51.1,43.2,30.16,SSE,157,0.0,0.8,74,0.00,,,0.00,WUHU21636XXSP,2013-04-27 16:10:00,
2013-04-27 09:12:00,51.1,42.9,30.17,SSE,157,0.0,0.0,73,0.00,,,0.00,WUHU21636XXSP,2013-04-27 16:12:00,
2013-04-27 09:13:00,51.1,42.9,30.17,SSE,157,0.0,0.0,73,0.00,,,0.00,WUHU21636XXSP,2013-04-27 16:13:00,
2013-04-27 09:14:00,51.1,42.9,30.17,SSE,157,2.6,2.6,73,0.00,,,0.00,WUHU21636XXSP,2013-04-27 16:14:00,
2013-04-27 09:15:00,51.1,42.9,30.17,SSE,157,2.6,2.6,73,0.00,,,0.00,WUHU21636XXSP,2013-04-27 16:15:00,
2013-04-27 09:18:00,51.4,43.5,30.17,SE,135,0.0,2.6,74,0.00,,,0.00,WUHU21636XXSP,2013-04-27 16:18:00,
2013-04-27 09:19:00,51.4,43.5,30.17,SE,135,0.0,2.6,74,0.00,,,0.00,WUHU21636XXSP,2013-04-27 16:19:00,
2013-04-27 09:20:00,51.4,43.5,30.17,SSW,202,0.0,2.6,74,0.00,,,0.00,WUHU21636XXSP,2013-04-27 16:20:00,
2013-04-27 09:23:00,51.4,43.5,30.17,SE,135,0.0,2.6,74,0.00,,,0.00,WUHU21636XXSP,2013-04-27 16:23:00,
2013-04-27 09:24:00,51.4,43.5,30.17,SE,135,0.0,2.6,74,0.00,,,0.00,WUHU21636XXSP,2013-04-27 16:24:00,
2013-04-27 09:25:00,51.4,43.5,30.16,SSE,157,0.0,2.6,74,0.00,,,0.00,WUHU21636XXSP,2013-04-27 16:25:00,
2013-04-27 09:28:00,51.4,43.9,30.16,SE,135,0.0,0.0,75,0.00,,,0.00,WUHU21636XXSP,2013-04-27 16:28:00,
2013-04-27 09:29:00,51.4,43.9,30.16,SE,135,0.0,0.0,75,0.00,,,0.00,WUHU21636XXSP,2013-04-27 16:29:00,
2013-04-27 09:30:00,51.4,43.9,30.15,SSW,202,0.0,0.0,75,0.00,,,0.00,WUHU21636XXSP,2013-04-27 16:30:00,
2013-04-27 09:31:00,51.4,43.9,30.15,SSW,202,0.0,0.0,75,0.00,,,0.00,WUHU21636XXSP,2013-04-27 16:31:00,
2013-04-27 09:33:00,51.4,44.2,30.15,South,180,0.0,0.0,76,0.00,,,0.00,WUHU21636XXSP,2013-04-27 16:33:00,
2013-04-27 09:34:00,51.4,44.2,30.15,South,180,0.0,0.0,76,0.00,,,0.00,WUHU21636XXSP,2013-04-27 16:34:00,
2013-04-27 09:35:00,51.4,44.2,30.16,SSE,157,0.0,0.0,76,0.00,,,0.00,WUHU21636XXSP,2013-04-27 16:35:00,
2013-04-27 09:36:00,51.4,44.2,30.16,SSE,157,0.0,0.0,76,0.00,,,0.00,WUHU21636XXSP,2013-04-27 16:36:00,
2013-04-27 09:38:00,51.4,44.2,30.16,SSE,157,0.0,0.0,76,0.00,,,0.00,WUHU21636XXSP,2013-04-27 16:38:00,
2013-04-27 09:39:00,51.4,44.2,30.16,SSE,157,0.0,0.0,76,0.00,,,0.00,WUHU21636XXSP,2013-04-27 16:39:00,
2013-04-27 09:41:00,51.4,44.2,30.17,SSE,157,0.0,0.0,76,0.00,,,0.00,WUHU21636XXSP,2013-04-27 16:41:00,
2013-04-27 09:44:00,51.4,44.6,30.17,SW,225,2.4,2.4,77,0.00,,,0.00,WUHU21636XXSP,2013-04-27 16:44:00,
2013-04-27 09:45:00,51.4,44.6,30.17,SW,225,2.4,2.4,77,0.00,,,0.00,WUHU21636XXSP,2013-04-27 16:45:00,
2013-04-27 09:46:00,51.4,44.6,30.17,SW,225,0.0,2.4,77,0.00,,,0.00,WUHU21636XXSP,2013-04-27 16:46:00,
2013-04-27 09:49:00,51.4,44.9,30.17,SSW,202,0.0,2.4,78,0.00,,,0.00,WUHU21636XXSP,2013-04-27 16:49:00,
2013-04-27 09:50:00,51.4,44.9,30.17,SSW,202,0.0,2.4,78,0.00,,,0.00,WUHU21636XXSP,2013-04-27 16:50:00,
2013-04-27 09:51:00,51.4,44.9,30.17,SW,225,0.0,2.4,78,0.00,,,0.00,WUHU21636XXSP,2013-04-27 16:51:00,
2013-04-27 09:54:00,51.4,44.9,30.17,SW,225,0.0,0.0,78,0.00,,,0.00,WUHU21636XXSP,2013-04-27 16:54:00,
2013-04-27 09:55:00,51.4,44.9,30.17,SW,225,0.0,0.0,78,0.00,,,0.00,WUHU21636XXSP,2013-04-27 16:55:00,
2013-04-27 09:56:00,51.4,44.9,30.17,SW,225,0.0,0.0,78,0.00,,,0.00,WUHU21636XXSP,2013-04-27 16:56:00,
2013-04-27 09:57:00,51.4,44.9,30.17,SW,225,0.0,0.0,78,0.00,,,0.00,WUHU21636XXSP,2013-04-27 16:57:00,
2013-04-27 09:59:00,51.6,45.1,30.17,SSW,202,0.0,0.0,78,0.00,,,0.00,WUHU21636XXSP,2013-04-27 16:59:00,
2013-04-27 10:00:00,51.6,45.1,30.18,SSW,202,0.0,0.0,78,0.00,,,0.00,WUHU21636XXSP,2013-04-27 17:00:00,
2013-04-27 10:01:00,51.6,45.1,30.18,SSW,202,0.0,0.0,78,0.00,,,0.00,WUHU21636XXSP,2013-04-27 17:01:00,
2013-04-27 10:02:00,51.6,45.1,30.18,ENE,67,0.0,0.0,78,0.00,,,0.00,WUHU21636XXSP,2013-04-27 17:02:00,
2013-04-27 10:03:00,51.6,45.1,30.18,ENE,67,0.0,0.0,78,0.00,,,0.00,WUHU21636XXSP,2013-04-27 17:03:00,
2013-04-27 10:04:00,51.6,45.1,30.18,SE,135,0.0,0.0,78,0.00,,,0.00,WUHU21636XXSP,2013-04-27 17:04:00,
2013-04-27 10:05:00,51.6,44.8,30.17,SE,135,0.0,0.0,77,0.00,,,0.00,WUHU21636XXSP,2013-04-27 17:05:00,
2013-04-27 10:06:00,51.6,44.8,30.17,SE,135,0.0,0.0,77,0.00,,,0.00,WUHU21636XXSP,2013-04-27 17:06:00,
2013-04-27 10:07:00,51.6,44.8,30.18,SE,135,0.0,0.0,77,0.00,,,0.00,WUHU21636XXSP,2013-04-27 17:07:00,
2013-04-27 10:08:00,52.0,45.2,30.18,SE,135,0.0,0.0,77,0.00,,,0.00,WUHU21636XXSP,2013-04-27 17:08:00,
2013-04-27 10:09:00,52.0,45.2,30.18,SE,135,0.0,0.0,77,0.00,,,0.00,WUHU21636XXSP,2013-04-27 17:09:00,
2013-04-27 10:11:00,52.0,45.2,30.18,SE,135,0.0,0.0,77,0.00,,,0.00,WUHU21636XXSP,2013-04-27 17:11:00,
2013-04-27 10:12:00,52.0,45.2,30.19,SW,225,0.0,0.0,77,0.00,,,0.00,WUHU21636XXSP,2013-04-27 17:12:00,
2013-04-27 10:13:00,52.0,45.2,30.19,SW,225,0.0,0.0,77,0.00,,,0.00,WUHU21636XXSP,2013-04-27 17:13:00,
2013-04-27 10:14:00,52.0,45.2,30.19,SW,225,0.0,0.0,77,0.00,,,0.00,WUHU21636XXSP,2013-04-27 17:14:00,
2013-04-27 10:16:00,52.0,45.2,30.19,SW,225,0.0,0.0,77,0.00,,,0.00,WUHU21636XXSP,2013-04-27 17:16:00,
2013-04-27 10:17:00,52.0,45.2,30.19,SW,225,0.0,0.0,77,0.00,,,0.00,WUHU21636XXSP,2013-04-27 17:17:00,
2013-04-27 10:18:00,52.0,45.2,30.19,SW,225,0.0,0.0,77,0.00,,,0.00,WUHU21636XXSP,2013-04-27 17:18:00,
2013-04-27 10:19:00,52.2,45.0,30.19,SW,225,0.0,0.0,76,0.00,,,0.00,WUHU21636XXSP,2013-04-27 17:19:00,
2013-04-27 10:21:00,52.3,45.1,30.19,SSE,157,0.0,0.0,76,0.00,,,0.00,WUHU21636XXSP,2013-04-27 17:21:00,
2013-04-27 10:23:00,52.3,45.1,30.19,South,180,0.0,0.0,76,0.00,,,0.00,WUHU21636XXSP,2013-04-27 17:23:00,
2013-04-27 10:24:00,52.3,45.1,30.19,South,180,0.0,0.0,76,0.00,,,0.00,WUHU21636XXSP,2013-04-27 17:24:00,
2013-04-27 10:26:00,52.3,45.1,30.19,South,180,0.0,0.0,76,0.00,,,0.00,WUHU21636XXSP,2013-04-27 17:26:00,
2013-04-27 10:28:00,52.3,45.1,30.19,South,180,0.0,0.0,76,0.00,,,0.00,WUHU21636XXSP,2013-04-27 17:28:00,
2013-04-27 10:30:00,52.5,45.6,30.19,South,180,0.0,0.0,77,0.00,,,0.00,WUHU21636XXSP,2013-04-27 17:30:00,
2013-04-27 10:31:00,52.5,45.3,30.19,South,180,0.0,0.0,76,0.00,,,0.00,WUHU21636XXSP,2013-04-27 17:31:00,
2013-04-27 10:33:00,52.5,45.3,30.19,South,180,0.0,0.0,76,0.00,,,0.00,WUHU21636XXSP,2013-04-27 17:33:00,
2013-04-27 10:35:00,52.5,45.3,30.19,SSW,202,0.0,0.0,76,0.00,,,0.00,WUHU21636XXSP,2013-04-27 17:35:00,
2013-04-27 10:36:00,52.7,45.5,30.19,South,180,0.0,0.0,76,0.00,,,0.00,WUHU21636XXSP,2013-04-27 17:36:00,
2013-04-27 10:37:00,52.7,45.5,30.19,South,180,0.0,0.0,76,0.00,,,0.00,WUHU21636XXSP,2013-04-27 17:37:00,
2013-04-27 10:38:00,52.7,45.5,30.19,South,180,0.0,0.0,76,0.00,,,0.00,WUHU21636XXSP,2013-04-27 17:38:00,
2013-04-27 10:40:00,52.9,45.3,30.19,South,180,0.0,0.0,75,0.00,,,0.00,WUHU21636XXSP,2013-04-27 17:40:00,
2013-04-27 10:42:00,52.9,45.3,30.19,South,180,0.0,0.0,75,0.00,,,0.00,WUHU21636XXSP,2013-04-27 17:42:00,
2013-04-27 10:43:00,52.9,45.7,30.19,SSW,202,0.0,0.0,76,0.00,,,0.00,WUHU21636XXSP,2013-04-27 17:43:00,
2013-04-27 10:45:00,53.1,45.9,30.19,SSW,202,0.0,0.0,76,0.00,,,0.00,WUHU21636XXSP,2013-04-27 17:45:00,
2013-04-27 10:47:00,53.2,46.0,30.19,South,180,0.0,0.0,76,0.00,,,0.00,WUHU21636XXSP,2013-04-27 17:47:00,
2013-04-27 10:48:00,53.2,46.0,30.19,South,180,0.0,0.0,76,0.00,,,0.00,WUHU21636XXSP,2013-04-27 17:48:00,
2013-04-27 10:49:00,53.2,46.0,30.19,South,180,0.0,0.0,76,0.00,,,0.00,WUHU21636XXSP,2013-04-27 17:49:00,
2013-04-27 10:51:00,53.2,46.0,30.20,South,180,0.0,0.0,76,0.00,,,0.00,WUHU21636XXSP,2013-04-27 17:51:00,
2013-04-27 10:52:00,53.4,45.8,30.19,ENE,67,0.0,0.0,75,0.00,,,0.00,WUHU21636XXSP,2013-04-27 17:52:00,
2013-04-27 10:53:00,53.4,45.8,30.19,ENE,67,0.0,0.0,75,0.00,,,0.00,WUHU21636XXSP,2013-04-27 17:53:00,
2013-04-27 10:55:00,53.4,45.8,30.20,SE,135,2.4,2.4,75,0.00,,,0.00,WUHU21636XXSP,2013-04-27 17:55:00,
2013-04-27 10:56:00,53.4,45.5,30.20,SE,135,2.4,2.4,74,0.00,,,0.00,WUHU21636XXSP,2013-04-27 17:56:00,
2013-04-27 10:58:00,53.4,45.8,30.20,SE,135,0.0,2.4,75,0.00,,,0.00,WUHU21636XXSP,2013-04-27 17:58:00,
2013-04-27 11:00:00,53.6,46.0,30.20,SE,135,0.0,2.4,75,0.00,,,0.00,WUHU21636XXSP,2013-04-27 18:00:00,
2013-04-27 11:01:00,53.6,46.0,30.19,SE,135,0.0,2.4,75,0.00,,,0.00,WUHU21636XXSP,2013-04-27 18:01:00,
2013-04-27 11:03:00,53.6,45.7,30.19,SE,135,0.0,2.4,74,0.00,,,0.00,WUHU21636XXSP,2013-04-27 18:03:00,
2013-04-27 11:05:00,53.8,45.9,30.20,SE,135,0.0,0.0,74,0.00,,,0.00,WUHU21636XXSP,2013-04-27 18:05:00,
2013-04-27 11:06:00,53.8,45.9,30.19,SE,135,0.0,0.0,74,0.00,,,0.00,WUHU21636XXSP,2013-04-27 18:06:00,
2013-04-27 11:08:00,53.8,45.9,30.19,SE,135,0.0,0.0,74,0.00,,,0.00,WUHU21636XXSP,2013-04-27 18:08:00,
2013-04-27 11:09:00,53.8,45.9,30.19,SE,135,0.0,0.0,74,0.00,,,0.00,WUHU21636XXSP,2013-04-27 18:09:00,
2013-04-27 11:11:00,53.8,45.9,30.20,SE,135,0.0,0.0,74,0.00,,,0.00,WUHU21636XXSP,2013-04-27 18:11:00,
2013-04-27 11:13:00,54.0,46.0,30.20,SE,135,0.0,0.0,74,0.00,,,0.00,WUHU21636XXSP,2013-04-27 18:13:00,
2013-04-27 11:14:00,54.0,46.0,30.19,SE,135,0.0,0.0,74,0.00,,,0.00,WUHU21636XXSP,2013-04-27 18:14:00,
2013-04-27 11:16:00,54.0,45.7,30.20,SE,135,0.0,0.0,73,0.00,,,0.00,WUHU21636XXSP,2013-04-27 18:16:00,
2013-04-27 11:18:00,54.0,45.7,30.20,SE,135,0.0,0.0,73,0.00,,,0.00,WUHU21636XXSP,2013-04-27 18:18:00,
2013-04-27 11:19:00,54.1,46.1,30.20,SE,135,0.0,0.0,74,0.00,,,0.00,WUHU21636XXSP,2013-04-27 18:19:00,
2013-04-27 11:21:00,54.1,46.1,30.20,SE,135,0.0,0.0,74,0.00,,,0.00,WUHU21636XXSP,2013-04-27 18:21:00,
2013-04-27 11:22:00,54.1,46.1,30.20,SE,135,0.0,0.0,74,0.00,,,0.00,WUHU21636XXSP,2013-04-27 18:22:00,
2013-04-27 11:23:00,54.1,45.8,30.20,SE,135,0.0,0.0,73,0.00,,,0.00,WUHU21636XXSP,2013-04-27 18:23:00,
2013-04-27 11:24:00,54.1,45.8,30.20,SE,135,0.0,0.0,73,0.00,,,0.00,WUHU21636XXSP,2013-04-27 18:24:00,
2013-04-27 11:26:00,54.1,46.1,30.20,SE,135,0.0,0.0,74,0.00,,,0.00,WUHU21636XXSP,2013-04-27 18:26:00,
2013-04-27 11:27:00,54.1,46.1,30.20,SE,135,0.0,0.0,74,0.00,,,0.00,WUHU21636XXSP,2013-04-27 18:27:00,
2013-04-27 11:28:00,54.3,46.3,30.20,SE,135,0.0,0.0,74,0.00,,,0.00,WUHU21636XXSP,2013-04-27 18:28:00,
2013-04-27 11:30:00,54.3,46.3,30.20,SE,135,0.0,0.0,74,0.00,,,0.00,WUHU21636XXSP,2013-04-27 18:30:00,
2013-04-27 11:31:00,54.3,46.3,30.20,SE,135,0.0,0.0,74,0.00,,,0.00,WUHU21636XXSP,2013-04-27 18:31:00,
2013-04-27 11:32:00,54.5,46.5,30.20,SE,135,0.0,0.0,74,0.00,,,0.00,WUHU21636XXSP,2013-04-27 18:32:00,
2013-04-27 11:33:00,54.5,46.5,30.20,SE,135,0.0,0.0,74,0.00,,,0.00,WUHU21636XXSP,2013-04-27 18:33:00,
2013-04-27 11:34:00,54.7,46.7,30.20,SE,135,0.0,0.0,74,0.00,,,0.00,WUHU21636XXSP,2013-04-27 18:34:00,
2013-04-27 11:35:00,54.7,46.7,30.20,SE,135,0.0,0.0,74,0.00,,,0.00,WUHU21636XXSP,2013-04-27 18:35:00,
2013-04-27 11:36:00,54.7,46.7,30.20,SE,135,0.0,0.0,74,0.00,,,0.00,WUHU21636XXSP,2013-04-27 18:36:00,
2013-04-27 11:37:00,54.7,46.7,30.20,SE,135,0.0,0.0,74,0.00,,,0.00,WUHU21636XXSP,2013-04-27 18:37:00,
2013-04-27 11:39:00,54.7,46.7,30.20,SE,135,0.0,0.0,74,0.00,,,0.00,WUHU21636XXSP,2013-04-27 18:39:00,
2013-04-27 11:40:00,54.7,46.7,30.20,SE,135,0.0,0.0,74,0.00,,,0.00,WUHU21636XXSP,2013-04-27 18:40:00,
2013-04-27 11:41:00,54.7,46.7,30.20,SE,135,0.0,0.0,74,0.00,,,0.00,WUHU21636XXSP,2013-04-27 18:41:00,
2013-04-27 11:42:00,54.7,46.7,30.20,SE,135,0.0,0.0,74,0.00,,,0.00,WUHU21636XXSP,2013-04-27 18:42:00,
2013-04-27 11:44:00,54.7,46.7,30.20,SE,135,0.0,0.0,74,0.00,,,0.00,WUHU21636XXSP,2013-04-27 18:44:00,
2013-04-27 11:45:00,54.7,46.7,30.20,SSW,202,0.0,0.0,74,0.00,,,0.00,WUHU21636XXSP,2013-04-27 18:45:00,
2013-04-27 11:46:00,54.7,46.7,30.20,SSW,202,0.0,0.0,74,0.00,,,0.00,WUHU21636XXSP,2013-04-27 18:46:00,
2013-04-27 11:48:00,54.7,46.4,30.20,SSE,157,0.0,0.0,73,0.00,,,0.00,WUHU21636XXSP,2013-04-27 18:48:00,
2013-04-27 11:49:00,54.7,46.4,30.20,SE,135,0.0,0.0,73,0.00,,,0.00,WUHU21636XXSP,2013-04-27 18:49:00,
2013-04-27 11:50:00,54.7,46.4,30.20,SE,135,0.0,0.0,73,0.00,,,0.00,WUHU21636XXSP,2013-04-27 18:50:00,
2013-04-27 11:52:00,55.0,46.7,30.20,SE,135,0.0,0.0,73,0.00,,,0.00,WUHU21636XXSP,2013-04-27 18:52:00,
2013-04-27 11:53:00,55.0,46.7,30.20,South,180,0.0,0.0,73,0.00,,,0.00,WUHU21636XXSP,2013-04-27 18:53:00,
2013-04-27 11:54:00,55.0,46.7,30.20,South,180,0.0,0.0,73,0.00,,,0.00,WUHU21636XXSP,2013-04-27 18:54:00,
2013-04-27 11:55:00,55.0,46.7,30.20,South,180,0.0,0.0,73,0.00,,,0.00,WUHU21636XXSP,2013-04-27 18:55:00,
2013-04-27 11:57:00,55.0,46.7,30.20,South,180,0.0,0.0,73,0.00,,,0.00,WUHU21636XXSP,2013-04-27 18:57:00,
2013-04-27 11:58:00,54.7,46.0,30.20,West,270,0.0,0.0,72,0.00,,,0.00,WUHU21636XXSP,2013-04-27 18:58:00,
2013-04-27 11:59:00,54.7,46.0,30.20,West,270,0.0,0.0,72,0.00,,,0.00,WUHU21636XXSP,2013-04-27 18:59:00,
2013-04-27 12:00:00,55.0,46.7,30.20,SSW,202,0.0,0.0,73,0.00,,,0.00,WUHU21636XXSP,2013-04-27 19:00:00,
2013-04-27 12:02:00,54.7,46.0,30.20,SE,135,0.0,0.0,72,0.00,,,0.00,WUHU21636XXSP,2013-04-27 19:02:00,
2013-04-27 12:03:00,54.7,46.0,30.20,SE,135,0.0,0.0,72,0.00,,,0.00,WUHU21636XXSP,2013-04-27 19:03:00,
2013-04-27 12:04:00,55.0,46.3,30.20,SE,135,0.0,0.0,72,0.00,,,0.00,WUHU21636XXSP,2013-04-27 19:04:00,
2013-04-27 12:05:00,55.0,46.3,30.20,SE,135,0.0,0.0,72,0.00,,,0.00,WUHU21636XXSP,2013-04-27 19:05:00,
2013-04-27 12:07:00,55.0,46.7,30.20,WNW,292,1.1,1.1,73,0.00,,,0.00,WUHU21636XXSP,2013-04-27 19:07:00,
2013-04-27 12:08:00,55.0,46.3,30.20,SSE,157,1.7,1.7,72,0.00,,,0.00,WUHU21636XXSP,2013-04-27 19:08:00,
2013-04-27 12:09:00,55.0,46.3,30.20,SSE,157,1.7,1.7,72,0.00,,,0.00,WUHU21636XXSP,2013-04-27 19:09:00,
2013-04-27 12:10:00,55.0,46.3,30.20,SSE,157,1.7,1.7,72,0.00,,,0.00,WUHU21636XXSP,2013-04-27 19:10:00,
2013-04-27 12:12:00,55.0,46.3,30.20,SSE,157,1.7,1.7,72,0.00,,,0.00,WUHU21636XXSP,2013-04-27 19:12:00,
2013-04-27 12:14:00,54.7,46.0,30.20,SSE,157,0.0,1.7,72,0.00,,,0.00,WUHU21636XXSP,2013-04-27 19:14:00,
2013-04-27 12:15:00,55.0,46.7,30.20,SSE,157,0.0,1.7,73,0.00,,,0.00,WUHU21636XXSP,2013-04-27 19:15:00,
2013-04-27 12:17:00,55.0,46.3,30.20,SSE,157,0.0,1.7,72,0.00,,,0.00,WUHU21636XXSP,2013-04-27 19:17:00,
2013-04-27 12:19:00,55.0,46.3,30.20,SSE,157,0.0,1.7,72,0.00,,,0.00,WUHU21636XXSP,2013-04-27 19:19:00,
2013-04-27 12:20:00,55.0,46.7,30.20,SSE,157,0.0,1.7,73,0.00,,,0.00,WUHU21636XXSP,2013-04-27 19:20:00,
2013-04-27 12:22:00,55.2,46.5,30.20,North,0,0.0,0.0,72,0.00,,,0.00,WUHU21636XXSP,2013-04-27 19:22:00,
2013-04-27 12:24:00,55.2,46.5,30.20,North,0,0.0,0.0,72,0.00,,,0.00,WUHU21636XXSP,2013-04-27 19:24:00,
2013-04-27 12:25:00,55.2,46.5,30.20,North,0,0.0,0.0,72,0.00,,,0.00,WUHU21636XXSP,2013-04-27 19:25:00,
2013-04-27 12:27:00,55.2,46.1,30.20,SE,135,0.0,0.0,71,0.00,,,0.00,WUHU21636XXSP,2013-04-27 19:27:00,
2013-04-27 12:29:00,55.2,46.5,30.21,SE,135,0.0,0.0,72,0.00,,,0.00,WUHU21636XXSP,2013-04-27 19:29:00,
2013-04-27 12:30:00,55.6,46.9,30.21,SE,135,0.0,0.0,72,0.00,,,0.00,WUHU21636XXSP,2013-04-27 19:30:00,
2013-04-27 12:31:00,55.6,46.9,30.21,SE,135,0.0,0.0,72,0.00,,,0.00,WUHU21636XXSP,2013-04-27 19:31:00,
2013-04-27 12:32:00,55.6,46.5,30.21,SE,135,0.0,0.0,71,0.00,,,0.00,WUHU21636XXSP,2013-04-27 19:32:00,
2013-04-27 12:34:00,55.2,46.1,30.21,SSE,157,0.0,0.0,71,0.00,,,0.00,WUHU21636XXSP,2013-04-27 19:34:00,
2013-04-27 12:35:00,55.2,46.1,30.20,SSE,157,0.0,0.0,71,0.00,,,0.00,WUHU21636XXSP,2013-04-27 19:35:00,
2013-04-27 12:36:00,55.2,46.1,30.21,SSE,157,0.0,0.0,71,0.00,,,0.00,WUHU21636XXSP,2013-04-27 19:36:00,
2013-04-27 12:38:00,55.2,46.1,30.21,SSE,157,0.0,0.0,71,0.00,,,0.00,WUHU21636XXSP,2013-04-27 19:38:00,
2013-04-27 12:39:00,55.2,46.1,30.20,SSE,157,0.0,0.0,71,0.00,,,0.00,WUHU21636XXSP,2013-04-27 19:39:00,
2013-04-27 12:41:00,55.6,46.5,30.21,South,180,5.5,6.9,71,0.00,,,0.00,WUHU21636XXSP,2013-04-27 19:41:00,
2013-04-27 12:43:00,55.6,46.5,30.21,South,180,2.2,6.9,71,0.00,,,0.00,WUHU21636XXSP,2013-04-27 19:43:00,
2013-04-27 12:44:00,55.6,46.5,30.21,South,180,1.1,6.9,71,0.00,,,0.00,WUHU21636XXSP,2013-04-27 19:44:00,
2013-04-27 12:46:00,55.6,46.5,30.21,South,180,0.0,6.9,71,0.00,,,0.00,WUHU21636XXSP,2013-04-27 19:46:00,
2013-04-27 12:48:00,55.8,46.7,30.21,SSE,157,0.0,6.9,71,0.00,,,0.00,WUHU21636XXSP,2013-04-27 19:48:00,
2013-04-27 12:50:00,55.8,46.7,30.21,SSE,157,0.0,6.9,71,0.00,,,0.00,WUHU21636XXSP,2013-04-27 19:50:00,
2013-04-27 12:51:00,55.8,46.7,30.21,SSE,157,0.0,5.5,71,0.00,,,0.00,WUHU21636XXSP,2013-04-27 19:51:00,
2013-04-27 12:53:00,55.9,46.8,30.21,SSE,157,0.0,1.1,71,0.00,,,0.00,WUHU21636XXSP,2013-04-27 19:53:00,
2013-04-27 12:55:00,55.6,46.5,30.21,South,180,0.0,0.0,71,0.00,,,0.00,WUHU21636XXSP,2013-04-27 19:55:00,
2013-04-27 12:56:00,55.6,46.5,30.21,South,180,0.0,0.0,71,0.00,,,0.00,WUHU21636XXSP,2013-04-27 19:56:00,
2013-04-27 12:57:00,55.6,46.5,30.21,South,180,0.0,0.0,71,0.00,,,0.00,WUHU21636XXSP,2013-04-27 19:57:00,
2013-04-27 12:58:00,55.6,46.5,30.20,South,180,0.0,0.0,71,0.00,,,0.00,WUHU21636XXSP,2013-04-27 19:58:00,
2013-04-27 13:00:00,55.8,46.7,30.21,South,180,0.0,0.0,71,0.00,,,0.00,WUHU21636XXSP,2013-04-27 20:00:00,
2013-04-27 13:01:00,55.9,46.8,30.20,ESE,116,4.6,5.8,71,0.00,,,0.00,WUHU21636XXSP,2013-04-27 20:01:00,
2013-04-27 13:02:00,55.9,46.8,30.20,ESE,119,4.0,5.8,71,0.00,,,0.00,WUHU21636XXSP,2013-04-27 20:02:00,
2013-04-27 13:03:00,55.9,46.8,30.20,SE,135,2.4,5.8,71,0.00,,,0.00,WUHU21636XXSP,2013-04-27 20:03:00,
2013-04-27 13:05:00,55.8,46.7,30.20,SSE,157,0.0,5.8,71,0.00,,,0.00,WUHU21636XXSP,2013-04-27 20:05:00,
2013-04-27 13:06:00,55.9,46.8,30.21,SSW,202,0.0,5.8,71,0.00,,,0.00,WUHU21636XXSP,2013-04-27 20:06:00,
2013-04-27 13:07:00,55.9,46.8,30.21,SSW,202,0.0,5.8,71,0.00,,,0.00,WUHU21636XXSP,2013-04-27 20:07:00,
2013-04-27 13:08:00,55.9,46.8,30.20,SSW,202,0.0,5.8,71,0.00,,,0.00,WUHU21636XXSP,2013-04-27 20:08:00,
2013-04-27 13:11:00,55.9,47.2,30.21,SSW,202,0.6,5.8,72,0.00,,,0.00,WUHU21636XXSP,2013-04-27 20:11:00,
2013-04-27 13:12:00,55.9,47.2,30.20,SSW,202,0.6,0.6,72,0.00,,,0.00,WUHU21636XXSP,2013-04-27 20:12:00,
2013-04-27 13:13:00,55.9,47.2,30.21,SE,135,0.4,0.6,72,0.00,,,0.00,WUHU21636XXSP,2013-04-27 20:13:00,
2013-04-27 13:14:00,55.9,47.2,30.21,SE,135,0.4,0.6,72,0.00,,,0.00,WUHU21636XXSP,2013-04-27 20:14:00,
2013-04-27 13:16:00,55.9,47.2,30.21,South,180,2.4,2.4,72,0.00,,,0.00,WUHU21636XXSP,2013-04-27 20:16:00,
2013-04-27 13:17:00,55.9,47.2,30.21,South,180,2.4,2.4,72,0.00,,,0.00,WUHU21636XXSP,2013-04-27 20:17:00,
2013-04-27 13:18:00,55.8,47.1,30.20,SE,137,4.3,8.9,72,0.00,,,0.00,WUHU21636XXSP,2013-04-27 20:18:00,
2013-04-27 13:19:00,55.8,47.1,30.21,ESE,112,3.7,8.9,72,0.00,,,0.00,WUHU21636XXSP,2013-04-27 20:19:00,
2013-04-27 13:21:00,55.8,47.1,30.20,SSE,163,1.2,8.9,72,0.00,,,0.00,WUHU21636XXSP,2013-04-27 20:21:00,
2013-04-27 13:22:00,55.2,46.8,30.20,SE,135,6.0,8.9,73,0.00,,,0.00,WUHU21636XXSP,2013-04-27 20:22:00,
2013-04-27 13:23:00,55.2,46.8,30.20,SSE,158,3.0,8.9,73,0.00,,,0.00,WUHU21636XXSP,2013-04-27 20:23:00,
2013-04-27 13:25:00,55.2,46.8,30.21,SW,225,0.4,8.9,73,0.00,,,0.00,WUHU21636XXSP,2013-04-27 20:25:00,
2013-04-27 13:26:00,55.6,47.6,30.20,SW,216,3.3,8.9,74,0.00,,,0.00,WUHU21636XXSP,2013-04-27 20:26:00,
2013-04-27 13:27:00,55.6,47.6,30.21,SW,214,5.4,8.0,74,0.00,,,0.00,WUHU21636XXSP,2013-04-27 20:27:00,
2013-04-27 13:28:00,55.6,47.6,30.20,SE,135,0.0,8.0,74,0.00,,,0.00,WUHU21636XXSP,2013-04-27 20:28:00,
2013-04-27 13:30:00,55.6,47.6,30.20,SE,135,0.0,8.0,74,0.00,,,0.00,WUHU21636XXSP,2013-04-27 20:30:00,
2013-04-27 13:31:00,55.6,47.6,30.20,SSE,157,3.3,8.0,74,0.00,,,0.00,WUHU21636XXSP,2013-04-27 20:31:00,
2013-04-27 13:32:00,55.6,47.6,30.20,SSE,157,3.3,8.0,74,0.00,,,0.00,WUHU21636XXSP,2013-04-27 20:32:00,
2013-04-27 13:34:00,55.6,47.6,30.20,SSE,157,3.3,8.0,74,0.00,,,0.00,WUHU21636XXSP,2013-04-27 20:34:00,
2013-04-27 13:35:00,55.6,47.6,30.20,SSW,202,0.8,8.0,74,0.00,,,0.00,WUHU21636XXSP,2013-04-27 20:35:00,
2013-04-27 13:36:00,55.6,47.6,30.20,SSW,202,0.8,3.3,74,0.00,,,0.00,WUHU21636XXSP,2013-04-27 20:36:00,
2013-04-27 13:37:00,55.6,47.6,30.20,SSW,202,0.8,3.3,74,0.00,,,0.00,WUHU21636XXSP,2013-04-27 20:37:00,
2013-04-27 13:39:00,55.8,47.8,30.20,SSW,202,0.0,3.3,74,0.00,,,0.00,WUHU21636XXSP,2013-04-27 20:39:00,
2013-04-27 13:40:00,55.8,47.8,30.20,SSW,202,0.0,3.3,74,0.00,,,0.00,WUHU21636XXSP,2013-04-27 20:40:00,
2013-04-27 13:41:00,55.8,47.8,30.20,SSE,157,3.1,3.3,74,0.00,,,0.00,WUHU21636XXSP,2013-04-27 20:41:00,
2013-04-27 13:42:00,55.8,47.8,30.20,SSE,157,3.1,3.3,74,0.00,,,0.00,WUHU21636XXSP,2013-04-27 20:42:00,
2013-04-27 13:44:00,55.9,47.5,30.20,SSE,157,3.1,3.1,73,0.00,,,0.00,WUHU21636XXSP,2013-04-27 20:44:00,
2013-04-27 13:45:00,55.9,47.5,30.20,SSE,157,3.1,3.1,73,0.00,,,0.00,WUHU21636XXSP,2013-04-27 20:45:00,
2013-04-27 13:46:00,55.9,47.5,30.20,SSW,202,0.0,3.1,73,0.00,,,0.00,WUHU21636XXSP,2013-04-27 20:46:00,
2013-04-27 13:47:00,55.9,47.5,30.20,SSW,202,0.0,3.1,73,0.00,,,0.00,WUHU21636XXSP,2013-04-27 20:47:00,
2013-04-27 13:48:00,55.9,47.5,30.20,SW,225,0.0,3.1,73,0.00,,,0.00,WUHU21636XXSP,2013-04-27 20:48:00,
2013-04-27 13:49:00,55.9,47.5,30.20,SW,225,0.0,3.1,73,0.00,,,0.00,WUHU21636XXSP,2013-04-27 20:49:00,
2013-04-27 13:50:00,55.9,47.5,30.20,SE,135,0.0,3.1,73,0.00,,,0.00,WUHU21636XXSP,2013-04-27 20:50:00,
2013-04-27 13:52:00,55.9,47.5,30.19,SE,135,0.0,3.1,73,0.00,,,0.00,WUHU21636XXSP,2013-04-27 20:52:00,
2013-04-27 13:53:00,55.9,47.5,30.20,WSW,247,0.0,0.0,73,0.00,,,0.00,WUHU21636XXSP,2013-04-27 20:53:00,
2013-04-27 13:54:00,55.9,47.5,30.19,NE,45,0.0,0.0,73,0.00,,,0.00,WUHU21636XXSP,2013-04-27 20:54:00,
2013-04-27 13:55:00,55.9,47.5,30.19,NE,45,0.0,0.0,73,0.00,,,0.00,WUHU21636XXSP,2013-04-27 20:55:00,
2013-04-27 13:57:00,56.1,47.7,30.19,SSW,202,0.0,0.0,73,0.00,,,0.00,WUHU21636XXSP,2013-04-27 20:57:00,
2013-04-27 13:58:00,56.1,47.7,30.19,SSW,202,0.0,0.0,73,0.00,,,0.00,WUHU21636XXSP,2013-04-27 20:58:00,
2013-04-27 13:59:00,56.1,47.3,30.20,SSE,157,0.0,0.0,72,0.00,,,0.00,WUHU21636XXSP,2013-04-27 20:59:00,
2013-04-27 14:00:00,56.1,47.3,30.19,SSE,157,0.0,0.0,72,0.00,,,0.00,WUHU21636XXSP,2013-04-27 21:00:00,
2013-04-27 14:02:00,56.3,47.5,30.20,SSE,157,2.4,2.4,72,0.00,,,0.00,WUHU21636XXSP,2013-04-27 21:02:00,
2013-04-27 14:03:00,56.3,47.9,30.20,SSE,154,2.3,2.4,73,0.00,,,0.00,WUHU21636XXSP,2013-04-27 21:03:00,
2013-04-27 14:04:00,56.3,47.9,30.20,SE,146,2.0,2.4,73,0.00,,,0.00,WUHU21636XXSP,2013-04-27 21:04:00,
2013-04-27 14:05:00,56.3,47.9,30.20,SE,135,1.7,2.4,73,0.00,,,0.00,WUHU21636XXSP,2013-04-27 21:05:00,
2013-04-27 14:06:00,56.5,47.7,30.20,SE,135,3.8,3.8,72,0.00,,,0.00,WUHU21636XXSP,2013-04-27 21:06:00,
2013-04-27 14:08:00,56.3,47.5,30.20,SE,135,3.8,3.8,72,0.00,,,0.00,WUHU21636XXSP,2013-04-27 21:08:00,
2013-04-27 14:09:00,56.3,47.5,30.20,SE,135,3.8,3.8,72,0.00,,,0.00,WUHU21636XXSP,2013-04-27 21:09:00,
2013-04-27 14:10:00,56.3,47.5,30.19,SSE,157,0.0,3.8,72,0.00,,,0.00,WUHU21636XXSP,2013-04-27 21:10:00,
2013-04-27 14:11:00,56.3,47.5,30.19,SSE,157,0.0,3.8,72,0.00,,,0.00,WUHU21636XXSP,2013-04-27 21:11:00,
2013-04-27 14:13:00,56.5,47.7,30.19,SSW,202,1.5,3.8,72,0.00,,,0.00,WUHU21636XXSP,2013-04-27 21:13:00,
2013-04-27 14:14:00,56.3,47.5,30.19,SSW,202,6.9,14.5,72,0.00,,,0.00,WUHU21636XXSP,2013-04-27 21:14:00,
2013-04-27 14:15:00,56.3,47.5,30.19,SE,141,7.3,14.5,72,0.00,,,0.00,WUHU21636XXSP,2013-04-27 21:15:00,
2013-04-27 14:16:00,56.3,47.5,30.19,SSE,156,1.6,14.5,72,0.00,,,0.00,WUHU21636XXSP,2013-04-27 21:16:00,
2013-04-27 14:18:00,56.1,47.3,30.19,SSW,202,3.8,14.5,72,0.00,,,0.00,WUHU21636XXSP,2013-04-27 21:18:00,
2013-04-27 14:19:00,56.1,47.3,30.19,SSW,202,3.8,14.5,72,0.00,,,0.00,WUHU21636XXSP,2013-04-27 21:19:00,
2013-04-27 14:20:00,56.1,47.3,30.19,South,186,3.4,14.5,72,0.00,,,0.00,WUHU21636XXSP,2013-04-27 21:20:00,
2013-04-27 14:22:00,56.3,47.5,30.19,SSE,168,2.8,14.5,72,0.00,,,0.00,WUHU21636XXSP,2013-04-27 21:22:00,
2013-04-27 14:23:00,56.3,47.5,30.19,SSW,202,2.6,13.1,72,0.00,,,0.00,WUHU21636XXSP,2013-04-27 21:23:00,
2013-04-27 14:24:00,56.3,47.5,30.19,SSW,202,2.6,13.1,72,0.00,,,0.00,WUHU21636XXSP,2013-04-27 21:24:00,
2013-04-27 14:25:00,56.5,47.7,30.19,SSW,206,1.7,11.1,72,0.00,,,0.00,WUHU21636XXSP,2013-04-27 21:25:00,
2013-04-27 14:27:00,56.1,47.3,30.19,SE,126,3.7,9.8,72,0.00,,,0.00,WUHU21636XXSP,2013-04-27 21:27:00,
2013-04-27 14:28:00,56.1,47.3,30.19,SSE,157,2.4,9.8,72,0.00,,,0.00,WUHU21636XXSP,2013-04-27 21:28:00,
2013-04-27 14:29:00,56.1,47.3,30.19,SSE,157,2.4,9.8,72,0.00,,,0.00,WUHU21636XXSP,2013-04-27 21:29:00,
2013-04-27 14:30:00,56.1,47.3,30.19,SSE,157,0.0,9.8,72,0.00,,,0.00,WUHU21636XXSP,2013-04-27 21:30:00,
2013-04-27 14:31:00,56.1,47.3,30.19,SSE,157,0.0,9.8,72,0.00,,,0.00,WUHU21636XXSP,2013-04-27 21:31:00,
2013-04-27 14:32:00,56.1,47.3,30.19,SSE,157,0.0,9.8,72,0.00,,,0.00,WUHU21636XXSP,2013-04-27 21:32:00,
2013-04-27 14:34:00,56.1,47.7,30.19,South,180,7.1,9.8,73,0.00,,,0.00,WUHU21636XXSP,2013-04-27 21:34:00,
2013-04-27 14:35:00,56.1,47.3,30.19,SSE,168,4.3,9.8,72,0.00,,,0.00,WUHU21636XXSP,2013-04-27 21:35:00,
2013-04-27 14:36:00,56.1,47.3,30.19,SSE,150,2.9,9.8,72,0.00,,,0.00,WUHU21636XXSP,2013-04-27 21:36:00,
2013-04-27 14:37:00,56.1,47.3,30.19,South,180,4.4,7.6,72,0.00,,,0.00,WUHU21636XXSP,2013-04-27 21:37:00,
2013-04-27 14:39:00,56.1,47.3,30.19,South,180,4.4,7.6,72,0.00,,,0.00,WUHU21636XXSP,2013-04-27 21:39:00,
2013-04-27 14:40:00,56.1,47.3,30.19,South,180,4.4,7.6,72,0.00,,,0.00,WUHU21636XXSP,2013-04-27 21:40:00,
2013-04-27 14:41:00,56.1,47.3,30.19,ENE,67,0.0,7.6,72,0.00,,,0.00,WUHU21636XXSP,2013-04-27 21:41:00,
2013-04-27 14:43:00,56.3,47.5,30.19,SSE,157,0.0,7.6,72,0.00,,,0.00,WUHU21636XXSP,2013-04-27 21:43:00,
2013-04-27 14:44:00,56.3,47.5,30.19,SSE,157,0.0,4.4,72,0.00,,,0.00,WUHU21636XXSP,2013-04-27 21:44:00,
2013-04-27 14:46:00,56.3,47.5,30.19,ESE,122,4.8,8.0,72,0.00,,,0.00,WUHU21636XXSP,2013-04-27 21:46:00,
2013-04-27 14:48:00,56.3,47.5,30.19,SE,135,0.0,8.0,72,0.00,,,0.00,WUHU21636XXSP,2013-04-27 21:48:00,
2013-04-27 14:49:00,56.3,47.5,30.19,South,180,3.1,8.0,72,0.00,,,0.00,WUHU21636XXSP,2013-04-27 21:49:00,
2013-04-27 14:50:00,56.3,47.5,30.19,South,180,3.1,8.0,72,0.00,,,0.00,WUHU21636XXSP,2013-04-27 21:50:00,
2013-04-27 14:51:00,56.5,47.7,30.19,ESE,112,4.2,8.0,72,0.00,,,0.00,WUHU21636XXSP,2013-04-27 21:51:00,
2013-04-27 14:52:00,56.5,47.7,30.19,ESE,112,4.2,8.0,72,0.00,,,0.00,WUHU21636XXSP,2013-04-27 21:52:00,
2013-04-27 14:53:00,56.5,47.7,30.19,ESE,112,4.2,8.0,72,0.00,,,0.00,WUHU21636XXSP,2013-04-27 21:53:00,
2013-04-27 14:54:00,56.5,47.7,30.19,ESE,112,4.2,8.0,72,0.00,,,0.00,WUHU21636XXSP,2013-04-27 21:54:00,
2013-04-27 14:55:00,56.5,47.7,30.19,SW,225,0.0,8.0,72,0.00,,,0.00,WUHU21636XXSP,2013-04-27 21:55:00,
2013-04-27 14:56:00,56.5,47.7,30.19,SW,225,0.0,4.6,72,0.00,,,0.00,WUHU21636XXSP,2013-04-27 21:56:00,
2013-04-27 14:57:00,56.5,47.7,30.19,SW,225,0.0,4.2,72,0.00,,,0.00,WUHU21636XXSP,2013-04-27 21:57:00,
2013-04-27 14:58:00,56.5,47.7,30.19,SW,225,0.0,4.2,72,0.00,,,0.00,WUHU21636XXSP,2013-04-27 21:58:00,
2013-04-27 14:59:00,56.7,47.5,30.19,ESE,112,0.8,4.2,71,0.00,,,0.00,WUHU21636XXSP,2013-04-27 21:59:00,
2013-04-27 15:00:00,56.7,47.5,30.19,ESE,112,0.8,4.2,71,0.00,,,0.00,WUHU21636XXSP,2013-04-27 22:00:00,
2013-04-27 15:01:00,56.7,47.5,30.19,ESE,112,0.8,4.2,71,0.00,,,0.00,WUHU21636XXSP,2013-04-27 22:01:00,
2013-04-27 15:02:00,56.8,47.6,30.19,South,180,9.1,16.7,71,0.00,,,0.00,WUHU21636XXSP,2013-04-27 22:02:00,
2013-04-27 15:03:00,56.8,47.6,30.19,SSE,160,5.4,16.7,71,0.00,,,0.00,WUHU21636XXSP,2013-04-27 22:03:00,
2013-04-27 15:05:00,56.8,47.6,30.19,South,180,0.2,16.7,71,0.00,,,0.00,WUHU21636XXSP,2013-04-27 22:05:00,
2013-04-27 15:06:00,56.8,47.3,30.19,SSE,157,4.4,16.7,70,0.00,,,0.00,WUHU21636XXSP,2013-04-27 22:06:00,
2013-04-27 15:07:00,56.5,47.4,30.18,SSE,157,4.4,16.7,71,0.00,,,0.00,WUHU21636XXSP,2013-04-27 22:07:00,
2013-04-27 15:08:00,56.5,47.4,30.18,SSE,157,4.4,16.7,71,0.00,,,0.00,WUHU21636XXSP,2013-04-27 22:08:00,
2013-04-27 15:10:00,56.5,47.7,30.18,SE,135,4.2,16.7,72,0.00,,,0.00,WUHU21636XXSP,2013-04-27 22:10:00,
2013-04-27 15:11:00,56.5,47.7,30.19,SE,135,4.2,14.5,72,0.00,,,0.00,WUHU21636XXSP,2013-04-27 22:11:00,
2013-04-27 15:12:00,56.5,47.7,30.18,SE,137,4.0,14.0,72,0.00,,,0.00,WUHU21636XXSP,2013-04-27 22:12:00,
2013-04-27 15:13:00,56.5,47.7,30.19,SSE,157,3.1,4.4,72,0.00,,,0.00,WUHU21636XXSP,2013-04-27 22:13:00,
2013-04-27 15:15:00,56.3,47.5,30.19,SSE,157,0.0,4.4,72,0.00,,,0.00,WUHU21636XXSP,2013-04-27 22:15:00,
2013-04-27 15:16:00,56.3,47.5,30.19,WSW,247,4.4,6.2,72,0.00,,,0.00,WUHU21636XXSP,2013-04-27 22:16:00,
2013-04-27 15:17:00,56.3,47.5,30.19,SSE,162,4.5,9.6,72,0.00,,,0.00,WUHU21636XXSP,2013-04-27 22:17:00,
2013-04-27 15:18:00,56.3,47.5,30.19,SSE,161,4.2,9.6,72,0.00,,,0.00,WUHU21636XXSP,2013-04-27 22:18:00,
2013-04-27 15:19:00,56.3,47.5,30.18,SSE,147,3.3,9.6,72,0.00,,,0.00,WUHU21636XXSP,2013-04-27 22:19:00,
2013-04-27 15:20:00,56.1,47.3,30.18,SSE,157,2.4,9.6,72,0.00,,,0.00,WUHU21636XXSP,2013-04-27 22:20:00,
2013-04-27 15:21:00,56.1,47.3,30.19,SSE,157,2.4,9.6,72,0.00,,,0.00,WUHU21636XXSP,2013-04-27 22:21:00,
2013-04-27 15:23:00,56.1,47.7,30.18,SSW,202,0.0,9.6,73,0.00,,,0.00,WUHU21636XXSP,2013-04-27 22:23:00,
2013-04-27 15:24:00,56.3,47.9,30.18,South,180,1.3,9.6,73,0.00,,,0.00,WUHU21636XXSP,2013-04-27 22:24:00,
2013-04-27 15:25:00,56.3,47.9,30.18,South,180,1.3,9.6,73,0.00,,,0.00,WUHU21636XXSP,2013-04-27 22:25:00,
2013-04-27 15:26:00,56.3,47.5,30.18,ESE,112,2.6,7.6,72,0.00,,,0.00,WUHU21636XXSP,2013-04-27 22:26:00,
2013-04-27 15:28:00,56.3,47.5,30.18,ESE,112,2.6,2.6,72,0.00,,,0.00,WUHU21636XXSP,2013-04-27 22:28:00,
2013-04-27 15:29:00,56.3,47.5,30.18,ESE,112,2.6,2.6,72,0.00,,,0.00,WUHU21636XXSP,2013-04-27 22:29:00,
2013-04-27 15:31:00,56.5,47.7,30.17,SW,225,4.0,4.0,72,0.00,,,0.00,WUHU21636XXSP,2013-04-27 22:31:00,
2013-04-27 15:32:00,56.5,47.7,30.17,SW,225,4.0,4.0,72,0.00,,,0.00,WUHU21636XXSP,2013-04-27 22:32:00,
2013-04-27 15:33:00,56.3,47.5,30.17,SSE,157,7.8,8.5,72,0.00,,,0.00,WUHU21636XXSP,2013-04-27 22:33:00,
2013-04-27 15:34:00,56.3,47.2,30.17,SSE,164,3.9,8.5,71,0.00,,,0.00,WUHU21636XXSP,2013-04-27 22:34:00,
2013-04-27 15:36:00,56.3,47.5,30.17,SSE,157,2.0,8.5,72,0.00,,,0.00,WUHU21636XXSP,2013-04-27 22:36:00,
2013-04-27 15:37:00,56.3,47.5,30.17,WSW,247,0.0,8.5,72,0.00,,,0.00,WUHU21636XXSP,2013-04-27 22:37:00,
2013-04-27 15:38:00,56.3,47.5,30.17,WSW,247,0.0,8.5,72,0.00,,,0.00,WUHU21636XXSP,2013-04-27 22:38:00,
2013-04-27 15:39:00,56.3,47.5,30.17,WSW,247,0.0,8.5,72,0.00,,,0.00,WUHU21636XXSP,2013-04-27 22:39:00,
2013-04-27 15:41:00,56.3,47.5,30.17,SW,225,0.0,8.5,72,0.00,,,0.00,WUHU21636XXSP,2013-04-27 22:41:00,
2013-04-27 15:43:00,56.3,47.5,30.17,SSE,157,0.0,2.0,72,0.00,,,0.00,WUHU21636XXSP,2013-04-27 22:43:00,
2013-04-27 15:44:00,56.3,47.5,30.17,South,180,2.2,2.2,72,0.00,,,0.00,WUHU21636XXSP,2013-04-27 22:44:00,
2013-04-27 15:47:00,56.1,47.3,30.17,South,176,1.2,2.2,72,0.00,,,0.00,WUHU21636XXSP,2013-04-27 22:47:00,
2013-04-27 15:48:00,56.1,47.3,30.17,SW,225,4.2,4.2,72,0.00,,,0.00,WUHU21636XXSP,2013-04-27 22:48:00,
2013-04-27 15:49:00,56.1,47.3,30.17,SW,225,4.2,4.2,72,0.00,,,0.00,WUHU21636XXSP,2013-04-27 22:49:00,
2013-04-27 15:52:00,56.1,47.3,30.17,NE,45,0.0,4.2,72,0.00,,,0.00,WUHU21636XXSP,2013-04-27 22:52:00,
2013-04-27 15:54:00,56.1,47.3,30.17,WSW,247,0.0,4.2,72,0.00,,,0.00,WUHU21636XXSP,2013-04-27 22:54:00,
2013-04-27 15:55:00,55.9,47.2,30.17,SSW,202,0.0,4.2,72,0.00,,,0.00,WUHU21636XXSP,2013-04-27 22:55:00,
2013-04-27 15:58:00,55.9,47.2,30.17,SSE,157,0.0,4.2,72,0.00,,,0.00,WUHU21636XXSP,2013-04-27 22:58:00,
2013-04-27 15:59:00,55.9,47.5,30.17,SE,135,0.0,4.2,73,0.00,,,0.00,WUHU21636XXSP,2013-04-27 22:59:00,
2013-04-27 16:00:00,55.9,47.5,30.17,SE,135,0.0,4.2,73,0.00,,,0.00,WUHU21636XXSP,2013-04-27 23:00:00,
2013-04-27 16:03:00,55.9,47.2,30.17,SSE,157,2.0,2.0,72,0.00,,,0.00,WUHU21636XXSP,2013-04-27 23:03:00,
2013-04-27 16:04:00,55.9,47.5,30.17,SW,225,4.0,4.0,73,0.00,,,0.00,WUHU21636XXSP,2013-04-27 23:04:00,
2013-04-27 16:05:00,55.9,47.5,30.17,SW,225,4.0,4.0,73,0.00,,,0.00,WUHU21636XXSP,2013-04-27 23:05:00,
2013-04-27 16:06:00,55.9,47.5,30.17,SW,224,3.4,4.0,73,0.00,,,0.00,WUHU21636XXSP,2013-04-27 23:06:00,
2013-04-27 16:08:00,55.9,47.5,30.17,SSW,202,0.8,4.0,73,0.00,,,0.00,WUHU21636XXSP,2013-04-27 23:08:00,
2013-04-27 16:09:00,55.9,47.5,30.17,SSW,202,0.8,4.0,73,0.00,,,0.00,WUHU21636XXSP,2013-04-27 23:09:00,
2013-04-27 16:10:00,55.9,47.5,30.17,East,90,0.0,4.0,73,0.00,,,0.00,WUHU21636XXSP,2013-04-27 23:10:00,
2013-04-27 16:11:00,55.9,47.5,30.17,East,90,0.0,4.0,73,0.00,,,0.00,WUHU21636XXSP,2013-04-27 23:11:00,
2013-04-27 16:13:00,55.9,47.2,30.17,SSW,202,3.1,4.0,72,0.00,,,0.00,WUHU21636XXSP,2013-04-27 23:13:00,
2013-04-27 16:14:00,55.9,47.2,30.18,SSW,202,3.1,4.0,72,0.00,,,0.00,WUHU21636XXSP,2013-04-27 23:14:00,
2013-04-27 16:15:00,55.9,47.2,30.18,SSW,202,3.1,4.0,72,0.00,,,0.00,WUHU21636XXSP,2013-04-27 23:15:00,
2013-04-27 16:16:00,55.9,47.5,30.17,SSW,202,3.5,3.5,73,0.00,,,0.00,WUHU21636XXSP,2013-04-27 23:16:00,
2013-04-27 16:18:00,55.9,47.5,30.17,SSW,202,3.5,3.5,73,0.00,,,0.00,WUHU21636XXSP,2013-04-27 23:18:00,
2013-04-27 16:20:00,55.9,47.2,30.17,SSW,202,2.4,3.5,72,0.00,,,0.00,WUHU21636XXSP,2013-04-27 23:20:00,
2013-04-27 16:21:00,55.8,47.4,30.17,SSW,206,5.0,11.8,73,0.00,,,0.00,WUHU21636XXSP,2013-04-27 23:21:00,
2013-04-27 16:23:00,55.8,47.4,30.17,WSW,254,0.6,11.8,73,0.00,,,0.00,WUHU21636XXSP,2013-04-27 23:23:00,
2013-04-27 16:25:00,55.9,47.5,30.17,West,270,0.2,11.8,73,0.00,,,0.00,WUHU21636XXSP,2013-04-27 23:25:00,
2013-04-27 16:26:00,55.9,47.5,30.17,SSE,157,0.0,11.8,73,0.00,,,0.00,WUHU21636XXSP,2013-04-27 23:26:00,
2013-04-27 16:27:00,55.8,47.4,30.17,SE,139,7.0,11.8,73,0.00,,,0.00,WUHU21636XXSP,2013-04-27 23:27:00,
2013-04-27 16:28:00,55.9,47.5,30.17,South,187,3.7,11.8,73,0.00,,,0.00,WUHU21636XXSP,2013-04-27 23:28:00,
2013-04-27 16:30:00,55.8,47.8,30.17,SW,225,1.5,11.8,74,0.00,,,0.00,WUHU21636XXSP,2013-04-27 23:30:00,
2013-04-27 16:31:00,55.8,47.8,30.17,SW,225,1.5,11.4,74,0.00,,,0.00,WUHU21636XXSP,2013-04-27 23:31:00,
2013-04-27 16:32:00,55.8,47.8,30.17,SSE,157,0.0,11.4,74,0.00,,,0.00,WUHU21636XXSP,2013-04-27 23:32:00,
2013-04-27 16:33:00,55.8,47.8,30.18,SE,135,4.4,11.4,74,0.00,,,0.00,WUHU21636XXSP,2013-04-27 23:33:00,
2013-04-27 16:35:00,55.8,47.8,30.17,SE,135,4.4,11.4,74,0.00,,,0.00,WUHU21636XXSP,2013-04-27 23:35:00,
2013-04-27 16:36:00,55.8,47.8,30.17,SE,135,4.4,9.8,74,0.00,,,0.00,WUHU21636XXSP,2013-04-27 23:36:00,
2013-04-27 16:37:00,55.6,47.6,30.17,WSW,247,0.0,9.6,74,0.00,,,0.00,WUHU21636XXSP,2013-04-27 23:37:00,
2013-04-27 16:38:00,55.6,47.6,30.18,WSW,247,0.0,4.4,74,0.00,,,0.00,WUHU21636XXSP,2013-04-27 23:38:00,
2013-04-27 16:41:00,55.4,47.8,30.17,SW,225,2.4,4.4,75,0.00,,,0.00,WUHU21636XXSP,2013-04-27 23:41:00,
2013-04-27 16:42:00,55.4,47.8,30.17,SW,225,2.4,4.4,75,0.00,,,0.00,WUHU21636XXSP,2013-04-27 23:42:00,
2013-04-27 16:43:00,55.6,48.0,30.17,SSE,159,7.1,8.7,75,0.00,,,0.00,WUHU21636XXSP,2013-04-27 23:43:00,
2013-04-27 16:46:00,55.6,48.0,30.17,SW,221,1.6,11.8,75,0.00,,,0.00,WUHU21636XXSP,2013-04-27 23:46:00,
2013-04-27 16:47:00,55.6,48.0,30.17,SW,225,1.5,11.8,75,0.00,,,0.00,WUHU21636XXSP,2013-04-27 23:47:00,
2013-04-27 16:48:00,55.6,48.0,30.17,SW,225,1.5,11.8,75,0.00,,,0.00,WUHU21636XXSP,2013-04-27 23:48:00,
2013-04-27 16:51:00,55.9,48.2,30.17,South,180,0.0,11.8,75,0.00,,,0.00,WUHU21636XXSP,2013-04-27 23:51:00,
2013-04-27 16:52:00,55.9,48.2,30.18,South,180,0.0,11.8,75,0.00,,,0.00,WUHU21636XXSP,2013-04-27 23:52:00,
2013-04-27 16:53:00,56.1,48.4,30.18,SE,135,0.0,11.8,75,0.00,,,0.00,WUHU21636XXSP,2013-04-27 23:53:00,
2013-04-27 16:56:00,56.3,48.6,30.18,SW,225,0.0,0.0,75,0.00,,,0.00,WUHU21636XXSP,2013-04-27 23:56:00,
2013-04-27 16:57:00,56.3,48.6,30.18,SW,225,0.0,0.0,75,0.00,,,0.00,WUHU21636XXSP,2013-04-27 23:57:00,
2013-04-27 16:58:00,56.5,48.5,30.18,SW,225,0.0,0.0,74,0.00,,,0.00,WUHU21636XXSP,2013-04-27 23:58:00,
2013-04-27 17:02:00,56.5,48.5,30.18,WNW,292,2.4,2.4,74,0.00,,,0.00,WUHU21636XXSP,2013-04-28 00:02:00,
2013-04-27 17:03:00,56.5,48.5,30.18,WNW,292,2.4,2.4,74,0.00,,,0.00,WUHU21636XXSP,2013-04-28 00:03:00,
2013-04-27 17:04:00,56.7,48.3,30.18,WSW,247,2.6,2.6,73,0.00,,,0.00,WUHU21636XXSP,2013-04-28 00:04:00,
2013-04-27 17:07:00,56.8,48.4,30.18,WSW,247,2.6,2.6,73,0.00,,,0.00,WUHU21636XXSP,2013-04-28 00:07:00,
2013-04-27 17:08:00,56.8,48.4,30.18,SW,225,0.0,2.6,73,0.00,,,0.00,WUHU21636XXSP,2013-04-28 00:08:00,
2013-04-27 17:09:00,56.8,48.4,30.18,SW,225,0.0,2.6,73,0.00,,,0.00,WUHU21636XXSP,2013-04-28 00:09:00,
2013-04-27 17:12:00,56.8,48.0,30.18,SW,225,2.2,2.6,72,0.00,,,0.00,WUHU21636XXSP,2013-04-28 00:12:00,
2013-04-27 17:13:00,56.8,48.0,30.18,SW,225,1.8,2.6,72,0.00,,,0.00,WUHU21636XXSP,2013-04-28 00:13:00,
2013-04-27 17:14:00,56.8,48.0,30.18,SW,225,0.7,2.6,72,0.00,,,0.00,WUHU21636XXSP,2013-04-28 00:14:00,
2013-04-27 17:17:00,57.0,48.2,30.18,NNW,337,3.1,3.1,72,0.00,,,0.00,WUHU21636XXSP,2013-04-28 00:17:00,
2013-04-27 17:18:00,57.0,48.2,30.18,NNW,337,3.1,3.1,72,0.00,,,0.00,WUHU21636XXSP,2013-04-28 00:18:00,
2013-04-27 17:19:00,57.0,48.2,30.18,SSE,157,0.0,3.1,72,0.00,,,0.00,WUHU21636XXSP,2013-04-28 00:19:00,
2013-04-27 17:22:00,56.8,48.4,30.18,SSW,202,0.0,6.9,73,0.00,,,0.00,WUHU21636XXSP,2013-04-28 00:22:00,
2013-04-27 17:23:00,56.8,48.4,30.18,SSW,202,0.0,6.9,73,0.00,,,0.00,WUHU21636XXSP,2013-04-28 00:23:00,
2013-04-27 17:24:00,56.8,48.4,30.18,SSW,202,0.0,6.9,73,0.00,,,0.00,WUHU21636XXSP,2013-04-28 00:24:00,
2013-04-27 17:27:00,56.8,48.4,30.18,SSE,157,0.0,6.9,73,0.00,,,0.00,WUHU21636XXSP,2013-04-28 00:27:00,
2013-04-27 17:28:00,56.8,48.4,30.17,SSE,157,0.0,6.9,73,0.00,,,0.00,WUHU21636XXSP,2013-04-28 00:28:00,
2013-04-27 17:29:00,56.8,48.0,30.17,WSW,247,0.0,6.9,72,0.00,,,0.00,WUHU21636XXSP,2013-04-28 00:29:00,
2013-04-27 17:33:00,56.8,48.4,30.18,WSW,247,2.6,2.6,73,0.00,,,0.00,WUHU21636XXSP,2013-04-28 00:33:00,
2013-04-27 17:34:00,56.8,48.0,30.18,WSW,253,2.0,2.6,72,0.00,,,0.00,WUHU21636XXSP,2013-04-28 00:34:00,
2013-04-27 17:35:00,56.8,48.0,30.18,West,270,1.3,2.6,72,0.00,,,0.00,WUHU21636XXSP,2013-04-28 00:35:00,
2013-04-27 17:38:00,56.8,48.8,30.18,West,270,0.0,2.6,74,0.00,,,0.00,WUHU21636XXSP,2013-04-28 00:38:00,
2013-04-27 17:39:00,56.8,48.8,30.18,West,270,0.0,2.6,74,0.00,,,0.00,WUHU21636XXSP,2013-04-28 00:39:00,
2013-04-27 17:40:00,56.7,47.9,30.18,West,270,0.0,2.6,72,0.00,,,0.00,WUHU21636XXSP,2013-04-28 00:40:00,
2013-04-27 17:43:00,56.5,47.7,30.17,SSE,157,0.0,1.3,72,0.00,,,0.00,WUHU21636XXSP,2013-04-28 00:43:00,
2013-04-27 17:44:00,56.8,48.4,30.17,West,270,0.0,1.3,73,0.00,,,0.00,WUHU21636XXSP,2013-04-28 00:44:00,
2013-04-27 17:45:00,56.8,48.4,30.17,West,270,0.0,0.0,73,0.00,,,0.00,WUHU21636XXSP,2013-04-28 00:45:00,
2013-04-27 17:48:00,56.8,48.4,30.18,WNW,292,0.0,0.0,73,0.00,,,0.00,WUHU21636XXSP,2013-04-28 00:48:00,
2013-04-27 17:49:00,56.8,48.4,30.18,WNW,292,0.0,0.0,73,0.00,,,0.00,WUHU21636XXSP,2013-04-28 00:49:00,
2013-04-27 17:50:00,56.8,48.0,30.18,WNW,292,0.0,0.0,72,0.00,,,0.00,WUHU21636XXSP,2013-04-28 00:50:00,
2013-04-27 17:53:00,56.8,48.0,30.18,WSW,247,0.0,0.0,72,0.00,,,0.00,WUHU21636XXSP,2013-04-28 00:53:00,
2013-04-27 17:54:00,56.8,48.0,30.18,WSW,247,0.0,0.0,72,0.00,,,0.00,WUHU21636XXSP,2013-04-28 00:54:00,
2013-04-27 17:56:00,57.0,48.2,30.18,WSW,247,0.0,0.0,72,0.00,,,0.00,WUHU21636XXSP,2013-04-28 00:56:00,
2013-04-27 17:59:00,56.8,48.0,30.18,WSW,247,0.0,0.0,72,0.00,,,0.00,WUHU21636XXSP,2013-04-28 00:59:00,
2013-04-27 18:01:00,56.8,48.4,30.18,SSE,157,4.4,4.4,73,0.00,,,0.00,WUHU21636XXSP,2013-04-28 01:01:00,
2013-04-27 18:04:00,56.8,48.4,30.18,SW,225,0.0,4.4,73,0.00,,,0.00,WUHU21636XXSP,2013-04-28 01:04:00,
2013-04-27 18:05:00,56.8,48.4,30.18,SW,225,0.0,4.4,73,0.00,,,0.00,WUHU21636XXSP,2013-04-28 01:05:00,
2013-04-27 18:06:00,57.0,48.6,30.18,SSE,157,0.0,4.4,73,0.00,,,0.00,WUHU21636XXSP,2013-04-28 01:06:00,
2013-04-27 18:09:00,57.2,48.4,30.18,WSW,247,0.0,4.4,72,0.00,,,0.00,WUHU21636XXSP,2013-04-28 01:09:00,
2013-04-27 18:10:00,57.0,48.2,30.18,WNW,292,3.1,4.4,72,0.00,,,0.00,WUHU21636XXSP,2013-04-28 01:10:00,
2013-04-27 18:11:00,57.0,48.2,30.18,WNW,292,3.1,3.1,72,0.00,,,0.00,WUHU21636XXSP,2013-04-28 01:11:00,
2013-04-27 18:14:00,56.5,48.1,30.18,WSW,247,0.0,3.1,73,0.00,,,0.00,WUHU21636XXSP,2013-04-28 01:14:00,
2013-04-27 18:15:00,56.5,48.1,30.18,WSW,247,0.0,3.1,73,0.00,,,0.00,WUHU21636XXSP,2013-04-28 01:15:00,
2013-04-27 18:16:00,56.3,47.9,30.18,West,270,0.0,3.1,73,0.00,,,0.00,WUHU21636XXSP,2013-04-28 01:16:00,
2013-04-27 18:19:00,56.3,48.3,30.18,SW,225,0.0,3.1,74,0.00,,,0.00,WUHU21636XXSP,2013-04-28 01:19:00,
2013-04-27 18:20:00,56.3,48.3,30.18,SW,225,0.0,3.1,74,0.00,,,0.00,WUHU21636XXSP,2013-04-28 01:20:00,
2013-04-27 18:21:00,56.1,47.7,30.18,South,180,0.0,3.1,73,0.00,,,0.00,WUHU21636XXSP,2013-04-28 01:21:00,
2013-04-27 18:24:00,55.9,47.9,30.19,SW,225,0.0,0.0,74,0.00,,,0.00,WUHU21636XXSP,2013-04-28 01:24:00,
2013-04-27 18:25:00,55.9,47.9,30.19,SW,225,0.0,0.0,74,0.00,,,0.00,WUHU21636XXSP,2013-04-28 01:25:00,
2013-04-27 18:27:00,55.8,48.2,30.18,SW,225,4.6,4.6,75,0.00,,,0.00,WUHU21636XXSP,2013-04-28 01:27:00,
2013-04-27 18:30:00,55.6,47.6,30.18,SW,225,4.6,4.6,74,0.00,,,0.00,WUHU21636XXSP,2013-04-28 01:30:00,
2013-04-27 18:33:00,55.2,47.6,30.18,SSW,202,0.0,4.6,75,0.00,,,0.00,WUHU21636XXSP,2013-04-28 01:33:00,
2013-04-27 18:35:00,55.2,47.6,30.18,SSW,202,0.0,4.6,75,0.00,,,0.00,WUHU21636XXSP,2013-04-28 01:35:00,
2013-04-27 18:36:00,55.2,47.9,30.18,SSW,202,0.0,4.6,76,0.00,,,0.00,WUHU21636XXSP,2013-04-28 01:36:00,
2013-04-27 18:38:00,55.2,47.9,30.18,SSW,202,0.0,4.6,76,0.00,,,0.00,WUHU21636XXSP,2013-04-28 01:38:00,
2013-04-27 18:40:00,55.2,47.9,30.18,SSW,202,0.0,0.0,76,0.00,,,0.00,WUHU21636XXSP,2013-04-28 01:40:00,
2013-04-27 18:41:00,55.2,47.9,30.18,SSW,202,0.0,0.0,76,0.00,,,0.00,WUHU21636XXSP,2013-04-28 01:41:00,
2013-04-27 18:43:00,55.2,48.3,30.18,SSW,202,3.8,3.8,77,0.00,,,0.00,WUHU21636XXSP,2013-04-28 01:43:00,
2013-04-27 18:45:00,55.2,47.9,30.18,SSW,202,3.8,3.8,76,0.00,,,0.00,WUHU21636XXSP,2013-04-28 01:45:00,
2013-04-27 18:46:00,55.0,48.1,30.18,SSE,157,0.0,3.8,77,0.00,,,0.00,WUHU21636XXSP,2013-04-28 01:46:00,
2013-04-27 18:47:00,55.0,48.1,30.18,SSE,157,0.0,3.8,77,0.00,,,0.00,WUHU21636XXSP,2013-04-28 01:47:00,
2013-04-27 18:49:00,55.2,47.9,30.18,SSE,157,0.0,3.8,76,0.00,,,0.00,WUHU21636XXSP,2013-04-28 01:49:00,
2013-04-27 18:50:00,55.2,47.9,30.18,SSE,157,0.0,3.8,76,0.00,,,0.00,WUHU21636XXSP,2013-04-28 01:50:00,
2013-04-27 18:52:00,55.0,48.1,30.18,SSE,157,0.0,3.8,77,0.00,,,0.00,WUHU21636XXSP,2013-04-28 01:52:00,
2013-04-27 18:53:00,55.0,47.7,30.18,SSE,157,0.0,3.8,76,0.00,,,0.00,WUHU21636XXSP,2013-04-28 01:53:00,
2013-04-27 18:54:00,55.0,47.7,30.18,SSE,157,0.0,3.8,76,0.00,,,0.00,WUHU21636XXSP,2013-04-28 01:54:00,
2013-04-27 18:55:00,55.0,48.1,30.18,SSE,157,0.0,0.0,77,0.00,,,0.00,WUHU21636XXSP,2013-04-28 01:55:00,
2013-04-27 18:56:00,55.0,48.1,30.18,SSE,157,0.0,0.0,77,0.00,,,0.00,WUHU21636XXSP,2013-04-28 01:56:00,
2013-04-27 18:57:00,55.0,47.7,30.18,ESE,112,5.3,7.3,76,0.00,,,0.00,WUHU21636XXSP,2013-04-28 01:57:00,
2013-04-27 18:58:00,55.0,48.1,30.18,SE,126,4.3,7.3,77,0.00,,,0.00,WUHU21636XXSP,2013-04-28 01:58:00,
2013-04-27 18:59:00,55.0,48.1,30.18,SE,127,4.2,7.3,77,0.00,,,0.00,WUHU21636XXSP,2013-04-28 01:59:00,
2013-04-27 19:00:00,54.7,47.8,30.18,SE,135,3.8,7.3,77,0.00,,,0.00,WUHU21636XXSP,2013-04-28 02:00:00,
2013-04-27 19:01:00,54.7,47.8,30.18,SE,135,3.8,7.3,77,0.00,,,0.00,WUHU21636XXSP,2013-04-28 02:01:00,
2013-04-27 19:02:00,54.9,48.0,30.18,SE,135,0.0,7.3,77,0.00,,,0.00,WUHU21636XXSP,2013-04-28 02:02:00,
2013-04-27 19:04:00,54.9,48.0,30.18,SE,135,0.0,7.3,77,0.00,,,0.00,WUHU21636XXSP,2013-04-28 02:04:00,
2013-04-27 19:06:00,54.9,48.0,30.18,SE,135,0.0,7.3,77,0.00,,,0.00,WUHU21636XXSP,2013-04-28 02:06:00,
2013-04-27 19:07:00,55.0,48.1,30.18,South,180,0.0,5.3,77,0.00,,,0.00,WUHU21636XXSP,2013-04-28 02:07:00,
2013-04-27 19:09:00,55.0,48.1,30.19,South,180,0.0,3.8,77,0.00,,,0.00,WUHU21636XXSP,2013-04-28 02:09:00,
2013-04-27 19:11:00,55.0,48.1,30.18,South,180,0.0,0.0,77,0.00,,,0.00,WUHU21636XXSP,2013-04-28 02:11:00,
2013-04-27 19:12:00,55.0,48.1,30.18,South,180,0.0,0.0,77,0.00,,,0.00,WUHU21636XXSP,2013-04-28 02:12:00,
2013-04-27 19:14:00,54.9,48.0,30.18,South,180,0.0,0.0,77,0.00,,,0.00,WUHU21636XXSP,2013-04-28 02:14:00,
2013-04-27 19:16:00,54.7,47.8,30.18,South,180,0.0,0.0,77,0.00,,,0.00,WUHU21636XXSP,2013-04-28 02:16:00,
2013-04-27 19:18:00,54.7,47.4,30.18,South,180,0.0,0.0,76,0.00,,,0.00,WUHU21636XXSP,2013-04-28 02:18:00,
2013-04-27 19:19:00,54.5,47.6,30.18,South,180,0.0,0.0,77,0.00,,,0.00,WUHU21636XXSP,2013-04-28 02:19:00,
2013-04-27 19:21:00,54.5,47.6,30.18,South,180,0.0,0.0,77,0.00,,,0.00,WUHU21636XXSP,2013-04-28 02:21:00,
2013-04-27 19:23:00,54.7,47.8,30.18,South,180,0.0,0.0,77,0.00,,,0.00,WUHU21636XXSP,2013-04-28 02:23:00,
2013-04-27 19:24:00,54.7,47.8,30.18,South,180,0.0,0.0,77,0.00,,,0.00,WUHU21636XXSP,2013-04-28 02:24:00,
2013-04-27 19:25:00,54.7,47.8,30.18,South,180,0.0,0.0,77,0.00,,,0.00,WUHU21636XXSP,2013-04-28 02:25:00,
2013-04-27 19:26:00,54.5,47.2,30.19,South,180,0.0,0.0,76,0.00,,,0.00,WUHU21636XXSP,2013-04-28 02:26:00,
2013-04-27 19:29:00,54.5,47.6,30.18,South,180,0.0,0.0,77,0.00,,,0.00,WUHU21636XXSP,2013-04-28 02:29:00,
2013-04-27 19:30:00,54.5,47.6,30.18,South,180,0.0,0.0,77,0.00,,,0.00,WUHU21636XXSP,2013-04-28 02:30:00,
2013-04-27 19:31:00,54.5,47.6,30.18,South,180,0.0,0.0,77,0.00,,,0.00,WUHU21636XXSP,2013-04-28 02:31:00,
2013-04-27 19:32:00,54.5,47.6,30.19,South,180,0.0,0.0,77,0.00,,,0.00,WUHU21636XXSP,2013-04-28 02:32:00,
2013-04-27 19:34:00,54.3,47.4,30.18,South,180,0.0,0.0,77,0.00,,,0.00,WUHU21636XXSP,2013-04-28 02:34:00,
2013-04-27 19:35:00,54.3,47.4,30.18,South,180,0.0,0.0,77,0.00,,,0.00,WUHU21636XXSP,2013-04-28 02:35:00,
2013-04-27 19:36:00,54.3,47.4,30.18,South,180,0.0,0.0,77,0.00,,,0.00,WUHU21636XXSP,2013-04-28 02:36:00,
2013-04-27 19:37:00,54.1,47.2,30.19,SE,135,0.0,0.0,77,0.00,,,0.00,WUHU21636XXSP,2013-04-28 02:37:00,
2013-04-27 19:40:00,54.1,47.5,30.19,SE,135,0.0,0.0,78,0.00,,,0.00,WUHU21636XXSP,2013-04-28 02:40:00,
2013-04-27 19:41:00,54.1,47.5,30.19,SSE,157,0.0,0.0,78,0.00,,,0.00,WUHU21636XXSP,2013-04-28 02:41:00,
2013-04-27 19:42:00,54.1,47.5,30.18,SSE,157,0.0,0.0,78,0.00,,,0.00,WUHU21636XXSP,2013-04-28 02:42:00,
2013-04-27 19:45:00,54.0,47.4,30.19,SSE,157,0.0,0.0,78,0.00,,,0.00,WUHU21636XXSP,2013-04-28 02:45:00,
2013-04-27 19:46:00,54.0,47.4,30.19,SSE,157,0.0,0.0,78,0.00,,,0.00,WUHU21636XXSP,2013-04-28 02:46:00,
2013-04-27 19:47:00,54.0,47.4,30.19,SSE,157,0.0,0.0,78,0.00,,,0.00,WUHU21636XXSP,2013-04-28 02:47:00,
2013-04-27 19:50:00,54.0,47.4,30.19,SE,135,0.0,0.0,78,0.00,,,0.00,WUHU21636XXSP,2013-04-28 02:50:00,
2013-04-27 19:51:00,54.0,47.4,30.19,SE,135,0.0,0.0,78,0.00,,,0.00,WUHU21636XXSP,2013-04-28 02:51:00,
2013-04-27 19:52:00,53.8,47.3,30.19,SE,135,0.0,0.0,78,0.00,,,0.00,WUHU21636XXSP,2013-04-28 02:52:00,
2013-04-27 19:55:00,53.6,47.1,30.19,SE,135,0.0,0.0,78,0.00,,,0.00,WUHU21636XXSP,2013-04-28 02:55:00,
2013-04-27 19:56:00,53.4,46.9,30.19,SE,135,0.0,0.0,78,0.00,,,0.00,WUHU21636XXSP,2013-04-28 02:56:00,
2013-04-27 19:57:00,53.4,46.9,30.19,SE,135,0.0,0.0,78,0.00,,,0.00,WUHU21636XXSP,2013-04-28 02:57:00,
2013-04-27 20:00:00,53.4,47.2,30.19,SSE,157,0.0,0.0,79,0.00,,,0.00,WUHU21636XXSP,2013-04-28 03:00:00,
2013-04-27 20:01:00,53.4,47.2,30.19,SSE,157,0.0,0.0,79,0.00,,,0.00,WUHU21636XXSP,2013-04-28 03:01:00,
2013-04-27 20:02:00,53.2,47.0,30.19,SSE,157,0.0,0.0,79,0.00,,,0.00,WUHU21636XXSP,2013-04-28 03:02:00,
2013-04-27 20:05:00,53.2,47.0,30.19,SSE,157,0.0,0.0,79,0.00,,,0.00,WUHU21636XXSP,2013-04-28 03:05:00,
2013-04-27 20:06:00,53.2,47.0,30.19,SSE,157,0.0,0.0,79,0.00,,,0.00,WUHU21636XXSP,2013-04-28 03:06:00,
2013-04-27 20:07:00,53.2,47.0,30.19,SSE,157,0.0,0.0,79,0.00,,,0.00,WUHU21636XXSP,2013-04-28 03:07:00,
2013-04-27 20:10:00,53.2,47.0,30.19,SSE,157,0.0,0.0,79,0.00,,,0.00,WUHU21636XXSP,2013-04-28 03:10:00,
2013-04-27 20:11:00,53.1,46.9,30.19,SSE,157,0.0,0.0,79,0.00,,,0.00,WUHU21636XXSP,2013-04-28 03:11:00,
2013-04-27 20:12:00,53.1,46.9,30.19,SSE,157,0.0,0.0,79,0.00,,,0.00,WUHU21636XXSP,2013-04-28 03:12:00,
2013-04-27 20:13:00,53.1,46.9,30.19,SSE,157,0.0,0.0,79,0.00,,,0.00,WUHU21636XXSP,2013-04-28 03:13:00,
2013-04-27 20:15:00,52.9,46.7,30.19,SSE,157,0.0,0.0,79,0.00,,,0.00,WUHU21636XXSP,2013-04-28 03:15:00,
2013-04-27 20:16:00,52.9,46.7,30.19,SSE,157,0.0,0.0,79,0.00,,,0.00,WUHU21636XXSP,2013-04-28 03:16:00,
2013-04-27 20:17:00,52.7,46.5,30.19,SSE,157,0.0,0.0,79,0.00,,,0.00,WUHU21636XXSP,2013-04-28 03:17:00,
2013-04-27 20:18:00,52.7,46.5,30.19,SSE,157,0.0,0.0,79,0.00,,,0.00,WUHU21636XXSP,2013-04-28 03:18:00,
2013-04-27 20:21:00,52.7,46.5,30.19,SSE,157,0.0,0.0,79,0.00,,,0.00,WUHU21636XXSP,2013-04-28 03:21:00,
2013-04-27 20:22:00,52.5,46.3,30.19,SSE,157,0.0,0.0,79,0.00,,,0.00,WUHU21636XXSP,2013-04-28 03:22:00,
2013-04-27 20:23:00,52.5,46.3,30.19,SSE,157,0.0,0.0,79,0.00,,,0.00,WUHU21636XXSP,2013-04-28 03:23:00,
2013-04-27 20:26:00,52.5,46.7,30.19,SSE,157,0.0,0.0,80,0.00,,,0.00,WUHU21636XXSP,2013-04-28 03:26:00,
2013-04-27 20:27:00,52.5,46.7,30.19,SSE,157,0.8,0.8,80,0.00,,,0.00,WUHU21636XXSP,2013-04-28 03:27:00,
2013-04-27 20:28:00,52.5,46.7,30.19,SSE,157,0.8,0.8,80,0.00,,,0.00,WUHU21636XXSP,2013-04-28 03:28:00,
2013-04-27 20:31:00,52.5,46.7,30.19,ESE,112,0.0,0.8,80,0.00,,,0.00,WUHU21636XXSP,2013-04-28 03:31:00,
2013-04-27 20:32:00,52.5,46.7,30.19,ESE,112,0.0,0.8,80,0.00,,,0.00,WUHU21636XXSP,2013-04-28 03:32:00,
2013-04-27 20:33:00,52.5,46.7,30.19,ESE,112,0.0,0.8,80,0.00,,,0.00,WUHU21636XXSP,2013-04-28 03:33:00,
2013-04-27 20:36:00,52.3,46.5,30.19,ESE,112,0.0,0.8,80,0.00,,,0.00,WUHU21636XXSP,2013-04-28 03:36:00,
2013-04-27 20:37:00,52.3,46.8,30.19,ESE,112,0.0,0.8,81,0.00,,,0.00,WUHU21636XXSP,2013-04-28 03:37:00,
2013-04-27 20:38:00,52.3,46.8,30.19,ESE,112,0.0,0.0,81,0.00,,,0.00,WUHU21636XXSP,2013-04-28 03:38:00,
2013-04-27 20:39:00,52.3,46.8,30.19,ESE,112,0.0,0.0,81,0.00,,,0.00,WUHU21636XXSP,2013-04-28 03:39:00,
2013-04-27 20:41:00,52.3,46.5,30.19,ESE,112,0.0,0.0,80,0.00,,,0.00,WUHU21636XXSP,2013-04-28 03:41:00,
2013-04-27 20:42:00,52.3,46.5,30.19,ESE,112,0.0,0.0,80,0.00,,,0.00,WUHU21636XXSP,2013-04-28 03:42:00,
2013-04-27 20:43:00,52.3,46.8,30.19,ESE,112,0.0,0.0,81,0.00,,,0.00,WUHU21636XXSP,2013-04-28 03:43:00,
2013-04-27 20:45:00,52.3,46.8,30.19,ESE,112,0.0,0.0,81,0.00,,,0.00,WUHU21636XXSP,2013-04-28 03:45:00,
2013-04-27 20:46:00,52.3,46.8,30.19,ESE,112,0.0,0.0,81,0.00,,,0.00,WUHU21636XXSP,2013-04-28 03:46:00,
2013-04-27 20:47:00,52.2,46.7,30.19,ESE,112,0.0,0.0,81,0.00,,,0.00,WUHU21636XXSP,2013-04-28 03:47:00,
2013-04-27 20:48:00,52.2,46.7,30.19,ESE,112,0.0,0.0,81,0.00,,,0.00,WUHU21636XXSP,2013-04-28 03:48:00,
2013-04-27 20:50:00,52.2,46.7,30.19,SE,135,0.0,0.0,81,0.00,,,0.00,WUHU21636XXSP,2013-04-28 03:50:00,
2013-04-27 20:51:00,52.2,46.7,30.19,SE,135,0.0,0.0,81,0.00,,,0.00,WUHU21636XXSP,2013-04-28 03:51:00,
2013-04-27 20:52:00,52.2,46.7,30.19,SE,135,0.0,0.0,81,0.00,,,0.00,WUHU21636XXSP,2013-04-28 03:52:00,
2013-04-27 20:53:00,52.2,46.7,30.19,SE,135,0.0,0.0,81,0.00,,,0.00,WUHU21636XXSP,2013-04-28 03:53:00,
2013-04-27 20:55:00,52.2,46.7,30.19,SE,135,0.0,0.0,81,0.00,,,0.00,WUHU21636XXSP,2013-04-28 03:55:00,
2013-04-27 20:56:00,52.2,46.7,30.20,SE,135,0.0,0.0,81,0.00,,,0.00,WUHU21636XXSP,2013-04-28 03:56:00,
2013-04-27 20:57:00,52.2,46.7,30.20,SE,135,0.0,0.0,81,0.00,,,0.00,WUHU21636XXSP,2013-04-28 03:57:00,
2013-04-27 20:58:00,52.0,46.5,30.20,SE,135,0.0,0.0,81,0.00,,,0.00,WUHU21636XXSP,2013-04-28 03:58:00,
2013-04-27 20:59:00,52.0,46.5,30.20,SE,135,0.0,0.0,81,0.00,,,0.00,WUHU21636XXSP,2013-04-28 03:59:00,
2013-04-27 21:00:00,52.0,46.5,30.20,SE,135,0.0,0.0,81,0.00,,,0.00,WUHU21636XXSP,2013-04-28 04:00:00,
2013-04-27 21:01:00,52.0,46.5,30.20,SE,135,0.0,0.0,81,0.00,,,0.00,WUHU21636XXSP,2013-04-28 04:01:00,
2013-04-27 21:06:00,52.0,46.5,30.20,SE,135,0.0,0.0,81,0.00,,,0.00,WUHU21636XXSP,2013-04-28 04:06:00,
2013-04-27 21:11:00,52.0,46.5,30.20,SE,135,0.0,0.0,81,0.00,,,0.00,WUHU21636XXSP,2013-04-28 04:11:00,
2013-04-27 21:12:00,52.0,46.5,30.20,SE,135,0.0,0.0,81,0.00,,,0.00,WUHU21636XXSP,2013-04-28 04:12:00,
2013-04-27 21:16:00,52.0,46.5,30.20,SE,135,0.0,0.0,81,0.00,,,0.00,WUHU21636XXSP,2013-04-28 04:16:00,
2013-04-27 21:17:00,52.0,46.5,30.20,SE,135,0.0,0.0,81,0.00,,,0.00,WUHU21636XXSP,2013-04-28 04:17:00,
2013-04-27 21:21:00,52.0,46.8,30.20,SE,135,0.0,0.0,82,0.00,,,0.00,WUHU21636XXSP,2013-04-28 04:21:00,
2013-04-27 21:22:00,51.6,46.4,30.20,SE,135,0.0,0.0,82,0.00,,,0.00,WUHU21636XXSP,2013-04-28 04:22:00,
2013-04-27 21:26:00,51.6,46.4,30.20,SE,135,0.0,0.0,82,0.00,,,0.00,WUHU21636XXSP,2013-04-28 04:26:00,
2013-04-27 21:27:00,51.6,46.4,30.20,SE,135,0.0,0.0,82,0.00,,,0.00,WUHU21636XXSP,2013-04-28 04:27:00,
2013-04-27 21:31:00,51.6,46.4,30.20,SE,135,0.0,0.0,82,0.00,,,0.00,WUHU21636XXSP,2013-04-28 04:31:00,
2013-04-27 21:32:00,51.6,46.4,30.20,SE,135,0.0,0.0,82,0.00,,,0.00,WUHU21636XXSP,2013-04-28 04:32:00,
2013-04-27 21:37:00,51.6,46.4,30.20,SE,135,0.0,0.0,82,0.00,,,0.00,WUHU21636XXSP,2013-04-28 04:37:00,
2013-04-27 21:42:00,51.4,46.2,30.20,SE,135,0.0,0.0,82,0.00,,,0.00,WUHU21636XXSP,2013-04-28 04:42:00,
2013-04-27 21:43:00,51.4,46.2,30.21,SE,135,0.0,0.0,82,0.00,,,0.00,WUHU21636XXSP,2013-04-28 04:43:00,
2013-04-27 21:47:00,51.4,46.2,30.21,SE,135,0.0,0.0,82,0.00,,,0.00,WUHU21636XXSP,2013-04-28 04:47:00,
2013-04-27 21:48:00,51.4,46.2,30.21,SE,135,0.0,0.0,82,0.00,,,0.00,WUHU21636XXSP,2013-04-28 04:48:00,
2013-04-27 21:52:00,51.4,46.2,30.21,SE,135,0.0,0.0,82,0.00,,,0.00,WUHU21636XXSP,2013-04-28 04:52:00,
2013-04-27 21:53:00,51.4,46.2,30.21,SE,135,0.0,0.0,82,0.00,,,0.00,WUHU21636XXSP,2013-04-28 04:53:00,
2013-04-27 21:57:00,51.1,45.9,30.21,SE,135,0.0,0.0,82,0.00,,,0.00,WUHU21636XXSP,2013-04-28 04:57:00,
2013-04-27 21:58:00,51.1,45.9,30.21,SE,135,0.0,0.0,82,0.00,,,0.00,WUHU21636XXSP,2013-04-28 04:58:00,
2013-04-27 22:02:00,51.1,45.9,30.21,SE,135,0.0,0.0,82,0.00,,,0.00,WUHU21636XXSP,2013-04-28 05:02:00,
2013-04-27 22:03:00,51.1,45.9,30.21,SE,135,0.0,0.0,82,0.00,,,0.00,WUHU21636XXSP,2013-04-28 05:03:00,
2013-04-27 22:04:00,51.1,45.9,30.22,SE,135,0.0,0.0,82,0.00,,,0.00,WUHU21636XXSP,2013-04-28 05:04:00,
2013-04-27 22:07:00,51.1,45.9,30.22,SE,135,0.0,0.0,82,0.00,,,0.00,WUHU21636XXSP,2013-04-28 05:07:00,
2013-04-27 22:08:00,51.1,45.9,30.22,SE,135,0.0,0.0,82,0.00,,,0.00,WUHU21636XXSP,2013-04-28 05:08:00,
2013-04-27 22:09:00,51.1,45.9,30.22,SE,135,0.0,0.0,82,0.00,,,0.00,WUHU21636XXSP,2013-04-28 05:09:00,
2013-04-27 22:13:00,51.1,46.3,30.22,SE,135,0.0,0.0,83,0.00,,,0.00,WUHU21636XXSP,2013-04-28 05:13:00,
2013-04-27 22:14:00,51.1,46.3,30.22,SE,135,0.0,0.0,83,0.00,,,0.00,WUHU21636XXSP,2013-04-28 05:14:00,
2013-04-27 22:18:00,50.9,46.1,30.22,SE,135,0.0,0.0,83,0.00,,,0.00,WUHU21636XXSP,2013-04-28 05:18:00,
2013-04-27 22:20:00,50.9,46.1,30.22,SE,135,0.0,0.0,83,0.00,,,0.00,WUHU21636XXSP,2013-04-28 05:20:00,
2013-04-27 22:23:00,51.1,46.3,30.22,SE,135,0.0,0.0,83,0.00,,,0.00,WUHU21636XXSP,2013-04-28 05:23:00,
2013-04-27 22:24:00,51.1,46.3,30.22,SE,135,0.0,0.0,83,0.00,,,0.00,WUHU21636XXSP,2013-04-28 05:24:00,
2013-04-27 22:25:00,50.9,46.1,30.22,SE,135,0.0,0.0,83,0.00,,,0.00,WUHU21636XXSP,2013-04-28 05:25:00,
2013-04-27 22:28:00,50.9,46.1,30.22,SE,135,0.0,0.0,83,0.00,,,0.00,WUHU21636XXSP,2013-04-28 05:28:00,
2013-04-27 22:29:00,50.9,46.1,30.22,SE,135,0.0,0.0,83,0.00,,,0.00,WUHU21636XXSP,2013-04-28 05:29:00,
2013-04-27 22:30:00,50.9,46.1,30.22,SE,135,0.0,0.0,83,0.00,,,0.00,WUHU21636XXSP,2013-04-28 05:30:00,
2013-04-27 22:33:00,50.9,46.1,30.22,SE,135,0.0,0.0,83,0.00,,,0.00,WUHU21636XXSP,2013-04-28 05:33:00,
2013-04-27 22:34:00,50.9,46.1,30.22,SE,135,0.0,0.0,83,0.00,,,0.00,WUHU21636XXSP,2013-04-28 05:34:00,
2013-04-27 22:35:00,50.9,46.1,30.22,SE,135,0.0,0.0,83,0.00,,,0.00,WUHU21636XXSP,2013-04-28 05:35:00,
2013-04-27 22:38:00,50.9,46.1,30.22,SE,135,0.0,0.0,83,0.00,,,0.00,WUHU21636XXSP,2013-04-28 05:38:00,
2013-04-27 22:39:00,50.9,46.1,30.22,SE,135,0.0,0.0,83,0.00,,,0.00,WUHU21636XXSP,2013-04-28 05:39:00,
2013-04-27 22:40:00,50.9,46.1,30.22,SE,135,0.0,0.0,83,0.00,,,0.00,WUHU21636XXSP,2013-04-28 05:40:00,
2013-04-27 22:43:00,50.7,45.9,30.22,SE,135,0.0,0.0,83,0.00,,,0.00,WUHU21636XXSP,2013-04-28 05:43:00,
2013-04-27 22:44:00,50.7,45.9,30.22,SE,135,0.0,0.0,83,0.00,,,0.00,WUHU21636XXSP,2013-04-28 05:44:00,
2013-04-27 22:45:00,50.7,45.9,30.22,SE,135,0.0,0.0,83,0.00,,,0.00,WUHU21636XXSP,2013-04-28 05:45:00,
2013-04-27 22:48:00,50.7,45.9,30.22,SE,135,0.0,0.0,83,0.00,,,0.00,WUHU21636XXSP,2013-04-28 05:48:00,
2013-04-27 22:49:00,50.7,45.9,30.22,SE,135,0.0,0.0,83,0.00,,,0.00,WUHU21636XXSP,2013-04-28 05:49:00,
2013-04-27 22:50:00,50.5,45.7,30.22,SE,135,0.0,0.0,83,0.00,,,0.00,WUHU21636XXSP,2013-04-28 05:50:00,
2013-04-27 22:51:00,50.5,45.7,30.22,SE,135,0.0,0.0,83,0.00,,,0.00,WUHU21636XXSP,2013-04-28 05:51:00,
2013-04-27 22:54:00,50.5,45.7,30.22,SE,135,0.0,0.0,83,0.00,,,0.00,WUHU21636XXSP,2013-04-28 05:54:00,
2013-04-27 22:55:00,50.5,45.7,30.22,SE,135,0.0,0.0,83,0.00,,,0.00,WUHU21636XXSP,2013-04-28 05:55:00,
2013-04-27 22:56:00,50.5,45.7,30.22,SE,135,0.0,0.0,83,0.00,,,0.00,WUHU21636XXSP,2013-04-28 05:56:00,
2013-04-27 22:59:00,50.5,46.0,30.22,SE,135,0.0,0.0,85,0.00,,,0.00,WUHU21636XXSP,2013-04-28 05:59:00,
2013-04-27 23:00:00,50.5,46.0,30.22,SE,135,0.0,0.0,85,0.00,,,0.00,WUHU21636XXSP,2013-04-28 06:00:00,
2013-04-27 23:01:00,50.5,46.0,30.22,SE,135,0.0,0.0,85,0.00,,,0.00,WUHU21636XXSP,2013-04-28 06:01:00,
2013-04-27 23:04:00,50.5,46.0,30.22,SE,135,0.0,0.0,85,0.00,,,0.00,WUHU21636XXSP,2013-04-28 06:04:00,
2013-04-27 23:05:00,50.5,46.0,30.22,SE,135,0.0,0.0,85,0.00,,,0.00,WUHU21636XXSP,2013-04-28 06:05:00,
2013-04-27 23:06:00,50.5,46.0,30.21,SE,135,0.0,0.0,85,0.00,,,0.00,WUHU21636XXSP,2013-04-28 06:06:00,
2013-04-27 23:09:00,50.5,46.0,30.21,SE,135,0.0,0.0,85,0.00,,,0.00,WUHU21636XXSP,2013-04-28 06:09:00,
2013-04-27 23:10:00,50.5,46.0,30.21,SE,135,0.0,0.0,85,0.00,,,0.00,WUHU21636XXSP,2013-04-28 06:10:00,
2013-04-27 23:11:00,50.5,46.0,30.22,SE,135,0.0,0.0,85,0.00,,,0.00,WUHU21636XXSP,2013-04-28 06:11:00,
2013-04-27 23:12:00,50.5,46.0,30.21,SE,135,0.0,0.0,85,0.00,,,0.00,WUHU21636XXSP,2013-04-28 06:12:00,
2013-04-27 23:14:00,50.5,46.0,30.21,SE,135,0.0,0.0,85,0.00,,,0.00,WUHU21636XXSP,2013-04-28 06:14:00,
2013-04-27 23:15:00,50.5,46.0,30.21,SE,135,0.0,0.0,85,0.00,,,0.00,WUHU21636XXSP,2013-04-28 06:15:00,
2013-04-27 23:16:00,50.5,46.0,30.21,SE,135,0.0,0.0,85,0.00,,,0.00,WUHU21636XXSP,2013-04-28 06:16:00,
2013-04-27 23:17:00,50.4,45.9,30.21,SE,135,0.0,0.0,85,0.00,,,0.00,WUHU21636XXSP,2013-04-28 06:17:00,
2013-04-27 23:19:00,50.5,46.0,30.21,SE,135,0.0,0.0,85,0.00,,,0.00,WUHU21636XXSP,2013-04-28 06:19:00,
2013-04-27 23:21:00,50.5,46.0,30.21,SE,135,0.0,0.0,85,0.00,,,0.00,WUHU21636XXSP,2013-04-28 06:21:00,
2013-04-27 23:22:00,50.5,46.0,30.22,SE,135,0.0,0.0,85,0.00,,,0.00,WUHU21636XXSP,2013-04-28 06:22:00,
2013-04-27 23:24:00,50.4,45.9,30.21,SE,135,0.0,0.0,85,0.00,,,0.00,WUHU21636XXSP,2013-04-28 06:24:00,
2013-04-27 23:26:00,50.4,45.9,30.21,SE,135,0.0,0.0,85,0.00,,,0.00,WUHU21636XXSP,2013-04-28 06:26:00,
2013-04-27 23:27:00,50.4,45.9,30.21,SE,135,0.0,0.0,85,0.00,,,0.00,WUHU21636XXSP,2013-04-28 06:27:00,
2013-04-27 23:30:00,50.4,45.9,30.21,SE,135,0.0,0.0,85,0.00,,,0.00,WUHU21636XXSP,2013-04-28 06:30:00,
2013-04-27 23:31:00,50.4,45.9,30.22,SE,135,0.0,0.0,85,0.00,,,0.00,WUHU21636XXSP,2013-04-28 06:31:00,
2013-04-27 23:32:00,50.4,45.9,30.21,SE,135,0.0,0.0,85,0.00,,,0.00,WUHU21636XXSP,2013-04-28 06:32:00,
2013-04-27 23:35:00,50.4,45.9,30.21,SE,135,0.0,0.0,85,0.00,,,0.00,WUHU21636XXSP,2013-04-28 06:35:00,
2013-04-27 23:36:00,50.4,45.9,30.21,SE,135,0.0,0.0,85,0.00,,,0.00,WUHU21636XXSP,2013-04-28 06:36:00,
2013-04-27 23:37:00,50.4,45.9,30.21,SE,135,0.0,0.0,85,0.00,,,0.00,WUHU21636XXSP,2013-04-28 06:37:00,
2013-04-27 23:40:00,50.4,45.9,30.21,SE,135,0.0,0.0,85,0.00,,,0.00,WUHU21636XXSP,2013-04-28 06:40:00,
2013-04-27 23:41:00,50.4,45.9,30.21,SE,135,0.0,0.0,85,0.00,,,0.00,WUHU21636XXSP,2013-04-28 06:41:00,
2013-04-27 23:42:00,50.4,45.9,30.21,SE,135,0.0,0.0,85,0.00,,,0.00,WUHU21636XXSP,2013-04-28 06:42:00,
2013-04-27 23:45:00,50.4,45.9,30.21,SE,135,0.0,0.0,85,0.00,,,0.00,WUHU21636XXSP,2013-04-28 06:45:00,
2013-04-27 23:46:00,50.4,45.9,30.21,SE,135,0.0,0.0,85,0.00,,,0.00,WUHU21636XXSP,2013-04-28 06:46:00,
2013-04-27 23:47:00,50.4,45.9,30.21,SE,135,0.0,0.0,85,0.00,,,0.00,WUHU21636XXSP,2013-04-28 06:47:00,
2013-04-27 23:50:00,50.4,45.9,30.22,SE,135,0.0,0.0,85,0.00,,,0.00,WUHU21636XXSP,2013-04-28 06:50:00,
2013-04-27 23:52:00,50.4,45.9,30.21,SE,135,0.0,0.0,85,0.00,,,0.00,WUHU21636XXSP,2013-04-28 06:52:00,
2013-04-27 23:56:00,50.4,45.9,30.22,SE,135,0.0,0.0,85,0.00,,,0.00,WUHU21636XXSP,2013-04-28 06:56:00,
2013-04-27 23:57:00,50.4,45.9,30.22,SE,135,0.0,0.0,85,0.00,,,0.00,WUHU21636XXSP,2013-04-28 06:57:00,